Observation data for Reese Center on 07/03/2020      Previous  Date  Next       Current Mesonet Observations  Soil Data  Daily Summary Page  Observations in Plain Language
KREE 030500Z 13013KT 28/18 A3007 RMK A01 T02830181  RH  054%=      5-min Rain = 0
KREE 030501Z 13013KT 28/18 A3007 RMK A01 T02830181  RH  054%=      5-min Rain = 0
KREE 030502Z 13014KT 28/18 A3007 RMK A01 T02830180  RH  054%=      5-min Rain = 0
KREE 030503Z 12011G16KT 28/18 A3007 RMK A01 T02830180  RH  054%=      5-min Rain = 0
KREE 030504Z 13012KT 28/18 A3007 RMK A01 T02830180  RH  054%=      5-min Rain = 0
KREE 030505Z 13011KT 28/18 A3007 RMK A01 T02830181  RH  054%=      5-min Rain = 0
KREE 030506Z 12010KT 28/18 A3007 RMK A01 T02820181  RH  054%=      5-min Rain = 0
KREE 030507Z 12010KT 28/18 A3007 RMK A01 T02820181  RH  054%=      5-min Rain = 0
KREE 030508Z 13013KT 28/18 A3007 RMK A01 T02820181  RH  054%=      5-min Rain = 0
KREE 030509Z 12011KT 28/18 A3007 RMK A01 T02820181  RH  054%=      5-min Rain = 0
KREE 030510Z 13012KT 28/18 A3007 RMK A01 T02820181  RH  054%=      5-min Rain = 0
KREE 030511Z 12014KT 28/18 A3007 RMK A01 T02820181  RH  054%=      5-min Rain = 0
KREE 030512Z 12012KT 28/18 A3007 RMK A01 T02820181  RH  054%=      5-min Rain = 0
KREE 030513Z 13012KT 28/18 A3007 RMK A01 T02810181  RH  054%=      5-min Rain = 0
KREE 030514Z 12011KT 28/18 A3007 RMK A01 T02810181  RH  054%=      5-min Rain = 0
KREE 030515Z 12013KT 28/18 A3007 RMK A01 T02810181  RH  054%=      5-min Rain = 0
KREE 030516Z 12012G18KT 28/18 A3007 RMK A01 T02810180  RH  054%=      5-min Rain = 0
KREE 030517Z 12012KT 28/18 A3007 RMK A01 T02810180  RH  054%=      5-min Rain = 0
KREE 030518Z 12014KT 28/18 A3007 RMK A01 T02810180  RH  054%=      5-min Rain = 0
KREE 030519Z 13014KT 28/18 A3007 RMK A01 T02810179  RH  054%=      5-min Rain = 0
KREE 030520Z 12012KT 28/18 A3007 RMK A01 T02810179  RH  054%=      5-min Rain = 0
KREE 030521Z 12011KT 28/18 A3007 RMK A01 T02810179  RH  054%=      5-min Rain = 0
KREE 030522Z 12011KT 28/18 A3007 RMK A01 T02800179  RH  054%=      5-min Rain = 0
KREE 030523Z 12012KT 28/18 A3007 RMK A01 T02800180  RH  054%=      5-min Rain = 0
KREE 030524Z 12012KT 28/18 A3007 RMK A01 T02800179  RH  054%=      5-min Rain = 0
KREE 030525Z 12012KT 28/18 A3008 RMK A01 T02800179  RH  054%=      5-min Rain = 0
KREE 030526Z 12013KT 28/18 A3008 RMK A01 T02800179  RH  054%=      5-min Rain = 0
KREE 030527Z 12013KT 28/18 A3008 RMK A01 T02800179  RH  054%=      5-min Rain = 0
KREE 030528Z 12011KT 28/18 A3008 RMK A01 T02800179  RH  054%=      5-min Rain = 0
KREE 030529Z 12013KT 28/18 A3008 RMK A01 T02800179  RH  054%=      5-min Rain = 0
KREE 030530Z 12013KT 28/18 A3008 RMK A01 T02800178  RH  054%=      5-min Rain = 0
KREE 030531Z 12013KT 28/18 A3008 RMK A01 T02800178  RH  054%=      5-min Rain = 0
KREE 030532Z 11013KT 28/18 A3008 RMK A01 T02800178  RH  054%=      5-min Rain = 0
KREE 030533Z 11013KT 28/18 A3008 RMK A01 T02800178  RH  054%=      5-min Rain = 0
KREE 030534Z 11012KT 28/18 A3008 RMK A01 T02800178  RH  054%=      5-min Rain = 0
KREE 030535Z 12011KT 28/18 A3008 RMK A01 T02790178  RH  054%=      5-min Rain = 0
KREE 030536Z 11011KT 28/18 A3008 RMK A01 T02790178  RH  054%=      5-min Rain = 0
KREE 030537Z 12012KT 28/18 A3008 RMK A01 T02780178  RH  054%=      5-min Rain = 0
KREE 030538Z 12013KT 28/18 A3008 RMK A01 T02780178  RH  054%=      5-min Rain = 0
KREE 030539Z 12013KT 28/18 A3008 RMK A01 T02780178  RH  055%=      5-min Rain = 0
KREE 030540Z 12012KT 28/18 A3008 RMK A01 T02780178  RH  054%=      5-min Rain = 0
KREE 030541Z 12013KT 28/18 A3008 RMK A01 T02780178  RH  055%=      5-min Rain = 0
KREE 030542Z 12011KT 28/18 A3008 RMK A01 T02780178  RH  055%=      5-min Rain = 0
KREE 030543Z 12010KT 28/18 A3008 RMK A01 T02770178  RH  055%=      5-min Rain = 0
KREE 030544Z 12011KT 28/18 A3008 RMK A01 T02770178  RH  055%=      5-min Rain = 0
KREE 030545Z 12010KT 28/18 A3008 RMK A01 T02770178  RH  055%=      5-min Rain = 0
KREE 030546Z 12011KT 28/18 A3008 RMK A01 T02760178  RH  055%=      5-min Rain = 0
KREE 030547Z 12010KT 28/18 A3008 RMK A01 T02760178  RH  055%=      5-min Rain = 0
KREE 030548Z 12010KT 28/18 A3008 RMK A01 T02760178  RH  055%=      5-min Rain = 0
KREE 030549Z 12009KT 28/18 A3008 RMK A01 T02760178  RH  055%=      5-min Rain = 0
KREE 030550Z 12010KT 28/18 A3008 RMK A01 T02760178  RH  055%=      5-min Rain = 0
KREE 030551Z 12010KT 28/18 A3008 RMK A01 T02760178  RH  055%=      5-min Rain = 0
KREE 030552Z 13008KT 28/18 A3008 RMK A01 T02750178  RH  055%=      5-min Rain = 0
KREE 030553Z 13010KT 28/18 A3008 RMK A01 T02750178  RH  056%=      5-min Rain = 0
KREE 030554Z 13010KT 27/18 A3008 RMK A01 T02740178  RH  056%=      5-min Rain = 0
KREE 030555Z 13012KT 27/18 A3008 RMK A01 T02740178  RH  056%=      5-min Rain = 0
KREE 030556Z 13012KT 27/18 A3008 RMK A01 T02740177  RH  055%=      5-min Rain = 0
KREE 030557Z 13012KT 27/18 A3008 RMK A01 T02740177  RH  055%=      5-min Rain = 0
KREE 030558Z 13011KT 27/18 A3008 RMK A01 T02740177  RH  055%=      5-min Rain = 0
KREE 030559Z 13011KT 27/18 A3008 RMK A01 T02740177  RH  055%=      5-min Rain = 0
KREE 030600Z 13011KT 27/18 A3008 RMK A01 T02740177  RH  055%=      5-min Rain = 0
KREE 030601Z 13009KT 27/18 A3008 RMK A01 T02740177  RH  055%=      5-min Rain = 0
KREE 030602Z 14011KT 27/18 A3008 RMK A01 T02740177  RH  056%=      5-min Rain = 0
KREE 030603Z 13011KT 27/18 A3008 RMK A01 T02740177  RH  056%=      5-min Rain = 0
KREE 030604Z 14009KT 27/18 A3008 RMK A01 T02740178  RH  056%=      5-min Rain = 0
KREE 030605Z 13011KT 27/18 A3008 RMK A01 T02730177  RH  056%=      5-min Rain = 0
KREE 030606Z 13010KT 27/18 A3008 RMK A01 T02730178  RH  056%=      5-min Rain = 0
KREE 030607Z 13010KT 27/18 A3008 RMK A01 T02730177  RH  056%=      5-min Rain = 0
KREE 030608Z 13010KT 27/18 A3008 RMK A01 T02720177  RH  056%=      5-min Rain = 0
KREE 030609Z 13009KT 27/18 A3008 RMK A01 T02720177  RH  056%=      5-min Rain = 0
KREE 030610Z 13009KT 27/18 A3008 RMK A01 T02710177  RH  056%=      5-min Rain = 0
KREE 030611Z 13011KT 27/18 A3008 RMK A01 T02710176  RH  056%=      5-min Rain = 0
KREE 030612Z 13010KT 27/18 A3008 RMK A01 T02710175  RH  056%=      5-min Rain = 0
KREE 030613Z 13010KT 27/18 A3008 RMK A01 T02710176  RH  056%=      5-min Rain = 0
KREE 030614Z 12009KT 27/18 A3008 RMK A01 T02710176  RH  056%=      5-min Rain = 0
KREE 030615Z 13010KT 27/18 A3008 RMK A01 T02710176  RH  056%=      5-min Rain = 0
KREE 030616Z 12010KT 27/18 A3008 RMK A01 T02710176  RH  056%=      5-min Rain = 0
KREE 030617Z 12010KT 27/18 A3008 RMK A01 T02710175  RH  056%=      5-min Rain = 0
KREE 030618Z 12009KT 27/18 A3008 RMK A01 T02710175  RH  056%=      5-min Rain = 0
KREE 030619Z 12009KT 27/18 A3008 RMK A01 T02700175  RH  056%=      5-min Rain = 0
KREE 030620Z 12010KT 27/18 A3008 RMK A01 T02710176  RH  056%=      5-min Rain = 0
KREE 030621Z 13009KT 27/18 A3008 RMK A01 T02700175  RH  056%=      5-min Rain = 0
KREE 030622Z 13009KT 27/18 A3008 RMK A01 T02710175  RH  056%=      5-min Rain = 0
KREE 030623Z 13009KT 27/18 A3008 RMK A01 T02700176  RH  056%=      5-min Rain = 0
KREE 030624Z 13009KT 27/18 A3008 RMK A01 T02700175  RH  056%=      5-min Rain = 0
KREE 030625Z 13009KT 27/18 A3008 RMK A01 T02700175  RH  056%=      5-min Rain = 0
KREE 030626Z 13009KT 27/18 A3008 RMK A01 T02700175  RH  056%=      5-min Rain = 0
KREE 030627Z 12009KT 27/18 A3008 RMK A01 T02690175  RH  056%=      5-min Rain = 0
KREE 030628Z 12009KT 27/18 A3007 RMK A01 T02690175  RH  056%=      5-min Rain = 0
KREE 030629Z 13009KT 27/18 A3007 RMK A01 T02690175  RH  056%=      5-min Rain = 0
KREE 030630Z 13009KT 27/18 A3007 RMK A01 T02690175  RH  056%=      5-min Rain = 0
KREE 030631Z 13010KT 27/17 A3007 RMK A01 T02680174  RH  056%=      5-min Rain = 0
KREE 030632Z 13009KT 27/17 A3007 RMK A01 T02680173  RH  056%=      5-min Rain = 0
KREE 030633Z 13009KT 27/17 A3007 RMK A01 T02680174  RH  056%=      5-min Rain = 0
KREE 030634Z 13009KT 27/17 A3007 RMK A01 T02680173  RH  056%=      5-min Rain = 0
KREE 030635Z 13010KT 27/17 A3007 RMK A01 T02670172  RH  056%=      5-min Rain = 0
KREE 030636Z 14011KT 27/17 A3007 RMK A01 T02670171  RH  055%=      5-min Rain = 0
KREE 030637Z 14011KT 27/17 A3007 RMK A01 T02680170  RH  055%=      5-min Rain = 0
KREE 030638Z 14010KT 27/17 A3007 RMK A01 T02680170  RH  055%=      5-min Rain = 0
KREE 030639Z 14010KT 27/17 A3007 RMK A01 T02680169  RH  055%=      5-min Rain = 0
KREE 030640Z 15011KT 27/17 A3007 RMK A01 T02680169  RH  055%=      5-min Rain = 0
KREE 030641Z 14009KT 27/17 A3007 RMK A01 T02680169  RH  054%=      5-min Rain = 0
KREE 030642Z 14009KT 27/17 A3007 RMK A01 T02680169  RH  054%=      5-min Rain = 0
KREE 030643Z 14009KT 27/17 A3007 RMK A01 T02680169  RH  054%=      5-min Rain = 0
KREE 030644Z 14009KT 27/17 A3007 RMK A01 T02680169  RH  055%=      5-min Rain = 0
KREE 030645Z 14010KT 27/17 A3007 RMK A01 T02670170  RH  055%=      5-min Rain = 0
KREE 030646Z 14009KT 27/17 A3007 RMK A01 T02670169  RH  055%=      5-min Rain = 0
KREE 030647Z 14010KT 27/17 A3007 RMK A01 T02670170  RH  055%=      5-min Rain = 0
KREE 030648Z 15009KT 27/17 A3007 RMK A01 T02660169  RH  055%=      5-min Rain = 0
KREE 030649Z 14009KT 27/17 A3007 RMK A01 T02660169  RH  055%=      5-min Rain = 0
KREE 030650Z 14010KT 27/17 A3007 RMK A01 T02660168  RH  055%=      5-min Rain = 0
KREE 030651Z 15009KT 27/17 A3007 RMK A01 T02660168  RH  055%=      5-min Rain = 0
KREE 030652Z 15009KT 27/17 A3007 RMK A01 T02660167  RH  055%=      5-min Rain = 0
KREE 030653Z 15008KT 27/17 A3007 RMK A01 T02660167  RH  055%=      5-min Rain = 0
KREE 030654Z 15008KT 27/17 A3007 RMK A01 T02660167  RH  055%=      5-min Rain = 0
KREE 030655Z 15010KT 27/17 A3007 RMK A01 T02650167  RH  055%=      5-min Rain = 0
KREE 030656Z 15010KT 27/17 A3007 RMK A01 T02650167  RH  055%=      5-min Rain = 0
KREE 030657Z 15010KT 27/17 A3007 RMK A01 T02650165  RH  054%=      5-min Rain = 0
KREE 030658Z 15009KT 27/17 A3007 RMK A01 T02650165  RH  054%=      5-min Rain = 0
KREE 030659Z 15009KT 27/17 A3007 RMK A01 T02650165  RH  054%=      5-min Rain = 0
KREE 030700Z 15009KT 27/17 A3007 RMK A01 T02650165  RH  054%=      5-min Rain = 0
KREE 030701Z 15009KT 27/17 A3007 RMK A01 T02650165  RH  054%=      5-min Rain = 0
KREE 030702Z 15010KT 26/16 A3007 RMK A01 T02640164  RH  054%=      5-min Rain = 0
KREE 030703Z 15008KT 26/16 A3007 RMK A01 T02640164  RH  054%=      5-min Rain = 0
KREE 030704Z 15009KT 26/16 A3007 RMK A01 T02640164  RH  054%=      5-min Rain = 0
KREE 030705Z 15009KT 26/16 A3007 RMK A01 T02640164  RH  054%=      5-min Rain = 0
KREE 030706Z 15008KT 26/16 A3007 RMK A01 T02640164  RH  054%=      5-min Rain = 0
KREE 030707Z 15007KT 26/16 A3007 RMK A01 T02630164  RH  054%=      5-min Rain = 0
KREE 030708Z 15008KT 26/16 A3007 RMK A01 T02630164  RH  054%=      5-min Rain = 0
KREE 030709Z 15008KT 26/16 A3007 RMK A01 T02630164  RH  054%=      5-min Rain = 0
KREE 030710Z 15009KT 26/16 A3007 RMK A01 T02630164  RH  054%=      5-min Rain = 0
KREE 030711Z 16008KT 26/16 A3007 RMK A01 T02630163  RH  054%=      5-min Rain = 0
KREE 030712Z 16008KT 26/16 A3007 RMK A01 T02630163  RH  054%=      5-min Rain = 0
KREE 030713Z 15008KT 26/16 A3007 RMK A01 T02630164  RH  054%=      5-min Rain = 0
KREE 030714Z 16008KT 26/16 A3007 RMK A01 T02620163  RH  054%=      5-min Rain = 0
KREE 030715Z 16008KT 26/16 A3007 RMK A01 T02620163  RH  054%=      5-min Rain = 0
KREE 030716Z 17007KT 26/16 A3007 RMK A01 T02620163  RH  055%=      5-min Rain = 0
KREE 030717Z 17006KT 26/16 A3007 RMK A01 T02610164  RH  055%=      5-min Rain = 0
KREE 030718Z 17007KT 26/16 A3007 RMK A01 T02600164  RH  055%=      5-min Rain = 0
KREE 030719Z 17007KT 26/16 A3007 RMK A01 T02590164  RH  056%=      5-min Rain = 0
KREE 030720Z 17007KT 26/16 A3006 RMK A01 T02580164  RH  056%=      5-min Rain = 0
KREE 030721Z 17007KT 26/16 A3006 RMK A01 T02570164  RH  056%=      5-min Rain = 0
KREE 030722Z 17007KT 26/16 A3006 RMK A01 T02570164  RH  056%=      5-min Rain = 0
KREE 030723Z 16007KT 26/16 A3006 RMK A01 T02560163  RH  056%=      5-min Rain = 0
KREE 030724Z 17007KT 26/16 A3006 RMK A01 T02560163  RH  056%=      5-min Rain = 0
KREE 030725Z 17007KT 26/16 A3006 RMK A01 T02560163  RH  056%=      5-min Rain = 0
KREE 030726Z 17007KT 26/16 A3006 RMK A01 T02560163  RH  056%=      5-min Rain = 0
KREE 030727Z 17007KT 26/16 A3006 RMK A01 T02560163  RH  056%=      5-min Rain = 0
KREE 030728Z 17007KT 26/16 A3006 RMK A01 T02550163  RH  057%=      5-min Rain = 0
KREE 030729Z 17007KT 26/16 A3006 RMK A01 T02550163  RH  057%=      5-min Rain = 0
KREE 030730Z 17007KT 26/16 A3006 RMK A01 T02550163  RH  057%=      5-min Rain = 0
KREE 030731Z 17008KT 25/16 A3006 RMK A01 T02540162  RH  057%=      5-min Rain = 0
KREE 030732Z 17007KT 26/16 A3006 RMK A01 T02550161  RH  056%=      5-min Rain = 0
KREE 030733Z 18007KT 26/16 A3006 RMK A01 T02550161  RH  056%=      5-min Rain = 0
KREE 030734Z 18008KT 26/16 A3006 RMK A01 T02550161  RH  056%=      5-min Rain = 0
KREE 030735Z 18007KT 26/16 A3006 RMK A01 T02550161  RH  056%=      5-min Rain = 0
KREE 030736Z 18007KT 26/16 A3006 RMK A01 T02550161  RH  056%=      5-min Rain = 0
KREE 030737Z 18008KT 26/16 A3006 RMK A01 T02550161  RH  056%=      5-min Rain = 0
KREE 030738Z 18008KT 26/16 A3006 RMK A01 T02550161  RH  056%=      5-min Rain = 0
KREE 030739Z 18007KT 26/16 A3006 RMK A01 T02550161  RH  056%=      5-min Rain = 0
KREE 030740Z 18007KT 26/16 A3006 RMK A01 T02550161  RH  056%=      5-min Rain = 0
KREE 030741Z 18007KT 26/16 A3006 RMK A01 T02550161  RH  056%=      5-min Rain = 0
KREE 030742Z 19007KT 26/16 A3006 RMK A01 T02550161  RH  056%=      5-min Rain = 0
KREE 030743Z 19007KT 26/16 A3006 RMK A01 T02550161  RH  056%=      5-min Rain = 0
KREE 030744Z 19008KT 26/16 A3006 RMK A01 T02550161  RH  056%=      5-min Rain = 0
KREE 030745Z 19008KT 26/16 A3006 RMK A01 T02550161  RH  056%=      5-min Rain = 0
KREE 030746Z 19008KT 26/16 A3006 RMK A01 T02550159  RH  055%=      5-min Rain = 0
KREE 030747Z 19007KT 26/16 A3006 RMK A01 T02550159  RH  055%=      5-min Rain = 0
KREE 030748Z 19007KT 26/16 A3006 RMK A01 T02550159  RH  055%=      5-min Rain = 0
KREE 030749Z 19007KT 25/16 A3006 RMK A01 T02540159  RH  056%=      5-min Rain = 0
KREE 030750Z 18007KT 25/16 A3005 RMK A01 T02530159  RH  056%=      5-min Rain = 0
KREE 030751Z 18007KT 25/16 A3005 RMK A01 T02530159  RH  056%=      5-min Rain = 0
KREE 030752Z 18007KT 25/16 A3005 RMK A01 T02530160  RH  056%=      5-min Rain = 0
KREE 030753Z 18007KT 25/16 A3005 RMK A01 T02530160  RH  056%=      5-min Rain = 0
KREE 030754Z 18007KT 25/16 A3005 RMK A01 T02530160  RH  057%=      5-min Rain = 0
KREE 030755Z 18007KT 25/16 A3005 RMK A01 T02520160  RH  057%=      5-min Rain = 0
KREE 030756Z 19006KT 25/16 A3005 RMK A01 T02520160  RH  057%=      5-min Rain = 0
KREE 030757Z 19006KT 25/16 A3005 RMK A01 T02510160  RH  057%=      5-min Rain = 0
KREE 030758Z 19006KT 25/16 A3005 RMK A01 T02510160  RH  057%=      5-min Rain = 0
KREE 030759Z 19006KT 25/16 A3005 RMK A01 T02510160  RH  057%=      5-min Rain = 0
KREE 030800Z 19006KT 25/16 A3005 RMK A01 T02500160  RH  057%=      5-min Rain = 0
KREE 030801Z 19006KT 25/16 A3005 RMK A01 T02500160  RH  057%=      5-min Rain = 0
KREE 030802Z 19006KT 25/16 A3005 RMK A01 T02490160  RH  058%=      5-min Rain = 0
KREE 030803Z 19006KT 25/16 A3005 RMK A01 T02480160  RH  058%=      5-min Rain = 0
KREE 030804Z 18006KT 25/16 A3005 RMK A01 T02480160  RH  058%=      5-min Rain = 0
KREE 030805Z 18005KT 25/16 A3005 RMK A01 T02470160  RH  058%=      5-min Rain = 0
KREE 030806Z 18005KT 25/16 A3005 RMK A01 T02470160  RH  058%=      5-min Rain = 0
KREE 030807Z 18005KT 25/16 A3005 RMK A01 T02460160  RH  059%=      5-min Rain = 0
KREE 030808Z 18005KT 25/16 A3005 RMK A01 T02460160  RH  059%=      5-min Rain = 0
KREE 030809Z 18004KT 25/16 A3005 RMK A01 T02460160  RH  059%=      5-min Rain = 0
KREE 030810Z 17004KT 25/16 A3005 RMK A01 T02460160  RH  059%=      5-min Rain = 0
KREE 030811Z 17003KT 25/16 A3005 RMK A01 T02460160  RH  059%=      5-min Rain = 0
KREE 030812Z 17003KT 25/16 A3005 RMK A01 T02450159  RH  059%=      5-min Rain = 0
KREE 030813Z 17003KT 24/16 A3005 RMK A01 T02440159  RH  059%=      5-min Rain = 0
KREE 030814Z 16003KT 24/16 A3005 RMK A01 T02430159  RH  059%=      5-min Rain = 0
KREE 030815Z 16003KT 24/16 A3005 RMK A01 T02430159  RH  059%=      5-min Rain = 0
KREE 030816Z 16003KT 24/16 A3006 RMK A01 T02420159  RH  060%=      5-min Rain = 0
KREE 030817Z 16003KT 24/16 A3006 RMK A01 T02420159  RH  060%=      5-min Rain = 0
KREE 030818Z 16004KT 24/16 A3006 RMK A01 T02410160  RH  060%=      5-min Rain = 0
KREE 030819Z 16003KT 24/16 A3006 RMK A01 T02410160  RH  060%=      5-min Rain = 0
KREE 030820Z 15002KT 24/16 A3006 RMK A01 T02410160  RH  060%=      5-min Rain = 0
KREE 030821Z 15002KT 24/16 A3006 RMK A01 T02410159  RH  060%=      5-min Rain = 0
KREE 030822Z 14002KT 24/16 A3006 RMK A01 T02410160  RH  060%=      5-min Rain = 0
KREE 030823Z 13001KT 24/16 A3006 RMK A01 T02420160  RH  060%=      5-min Rain = 0
KREE 030824Z 12001KT 24/16 A3006 RMK A01 T02420160  RH  060%=      5-min Rain = 0
KREE 030825Z 11000KT 24/16 A3006 RMK A01 T02430160  RH  060%=      5-min Rain = 0
KREE 030826Z 00000KT 24/16 A3006 RMK A01 T02430159  RH  059%=      5-min Rain = 0
KREE 030827Z 00000KT 24/16 A3006 RMK A01 T02430159  RH  059%=      5-min Rain = 0
KREE 030828Z 00000KT 24/16 A3006 RMK A01 T02410158  RH  059%=      5-min Rain = 0
KREE 030829Z 00000KT 24/16 A3006 RMK A01 T02400157  RH  060%=      5-min Rain = 0
KREE 030830Z 00000KT 24/16 A3006 RMK A01 T02380157  RH  060%=      5-min Rain = 0
KREE 030831Z 34001KT 24/16 A3006 RMK A01 T02370157  RH  061%=      5-min Rain = 0
KREE 030832Z 33002KT 24/16 A3006 RMK A01 T02370158  RH  061%=      5-min Rain = 0
KREE 030833Z 33003KT 24/16 A3006 RMK A01 T02380158  RH  061%=      5-min Rain = 0
KREE 030834Z 34005KT 24/16 A3006 RMK A01 T02370155  RH  060%=      5-min Rain = 0
KREE 030835Z 34006KT 23/15 A3006 RMK A01 T02310154  RH  061%=      5-min Rain = 0
KREE 030836Z 34006KT 23/15 A3006 RMK A01 T02280154  RH  063%=      5-min Rain = 0
KREE 030837Z 34006KT 23/16 A3006 RMK A01 T02260155  RH  064%=      5-min Rain = 0
KREE 030838Z 35006KT 23/16 A3006 RMK A01 T02260155  RH  064%=      5-min Rain = 0
KREE 030839Z 35006KT 23/16 A3006 RMK A01 T02260155  RH  064%=      5-min Rain = 0
KREE 030840Z 34006KT 23/16 A3006 RMK A01 T02260155  RH  064%=      5-min Rain = 0
KREE 030841Z 35005KT 23/16 A3006 RMK A01 T02270155  RH  064%=      5-min Rain = 0
KREE 030842Z 34005KT 23/16 A3006 RMK A01 T02280155  RH  064%=      5-min Rain = 0
KREE 030843Z 34005KT 23/16 A3006 RMK A01 T02280155  RH  063%=      5-min Rain = 0
KREE 030844Z 34005KT 23/16 A3006 RMK A01 T02280155  RH  063%=      5-min Rain = 0
KREE 030845Z 34005KT 23/16 A3006 RMK A01 T02280155  RH  063%=      5-min Rain = 0
KREE 030846Z 34005KT 23/16 A3006 RMK A01 T02290155  RH  063%=      5-min Rain = 0
KREE 030847Z 34005KT 23/16 A3006 RMK A01 T02290155  RH  063%=      5-min Rain = 0
KREE 030848Z 34004KT 23/16 A3006 RMK A01 T02290155  RH  063%=      5-min Rain = 0
KREE 030849Z 34005KT 23/16 A3006 RMK A01 T02290155  RH  063%=      5-min Rain = 0
KREE 030850Z 34005KT 23/16 A3006 RMK A01 T02290155  RH  063%=      5-min Rain = 0
KREE 030851Z 34005KT 23/15 A3006 RMK A01 T02290154  RH  063%=      5-min Rain = 0
KREE 030852Z 33005KT 23/16 A3006 RMK A01 T02300155  RH  063%=      5-min Rain = 0
KREE 030853Z 33004KT 23/16 A3006 RMK A01 T02300155  RH  063%=      5-min Rain = 0
KREE 030854Z 34005KT 23/16 A3006 RMK A01 T02300155  RH  063%=      5-min Rain = 0
KREE 030855Z 34005KT 23/16 A3006 RMK A01 T02300155  RH  063%=      5-min Rain = 0
KREE 030856Z 33005KT 23/16 A3006 RMK A01 T02290155  RH  063%=      5-min Rain = 0
KREE 030857Z 33004KT 23/16 A3006 RMK A01 T02290155  RH  063%=      5-min Rain = 0
KREE 030858Z 33005KT 23/16 A3006 RMK A01 T02290155  RH  063%=      5-min Rain = 0
KREE 030859Z 33005KT 23/16 A3006 RMK A01 T02300155  RH  063%=      5-min Rain = 0
KREE 030900Z 33005KT 23/15 A3006 RMK A01 T02300154  RH  062%=      5-min Rain = 0
KREE 030901Z 33005KT 23/16 A3007 RMK A01 T02300155  RH  062%=      5-min Rain = 0
KREE 030902Z 33005KT 23/16 A3007 RMK A01 T02300155  RH  062%=      5-min Rain = 0
KREE 030903Z 33005KT 23/16 A3007 RMK A01 T02300155  RH  062%=      5-min Rain = 0
KREE 030904Z 32005KT 23/16 A3007 RMK A01 T02300155  RH  063%=      5-min Rain = 0
KREE 030905Z 32005KT 23/16 A3007 RMK A01 T02300155  RH  063%=      5-min Rain = 0
KREE 030906Z 32005KT 23/16 A3007 RMK A01 T02300155  RH  063%=      5-min Rain = 0
KREE 030907Z 32005KT 23/16 A3007 RMK A01 T02300155  RH  063%=      5-min Rain = 0
KREE 030908Z 31005KT 23/16 A3007 RMK A01 T02300155  RH  063%=      5-min Rain = 0
KREE 030909Z 30005KT 23/16 A3007 RMK A01 T02300156  RH  063%=      5-min Rain = 0
KREE 030910Z 30005KT 23/16 A3006 RMK A01 T02300156  RH  063%=      5-min Rain = 0
KREE 030911Z 30005KT 23/16 A3006 RMK A01 T02300157  RH  063%=      5-min Rain = 0
KREE 030912Z 30005KT 23/16 A3006 RMK A01 T02300155  RH  063%=      5-min Rain = 0
KREE 030913Z 29005KT 23/16 A3006 RMK A01 T02290155  RH  063%=      5-min Rain = 0
KREE 030914Z 29005KT 23/15 A3006 RMK A01 T02270154  RH  064%=      5-min Rain = 0
KREE 030915Z 29006KT 23/16 A3006 RMK A01 T02260155  RH  064%=      5-min Rain = 0
KREE 030916Z 29006KT 23/16 A3006 RMK A01 T02250155  RH  064%=      5-min Rain = 0
KREE 030917Z 29006KT 23/16 A3006 RMK A01 T02250155  RH  064%=      5-min Rain = 0
KREE 030918Z 29006KT 23/15 A3006 RMK A01 T02260154  RH  064%=      5-min Rain = 0
KREE 030919Z 29006KT 23/15 A3006 RMK A01 T02260154  RH  064%=      5-min Rain = 0
KREE 030920Z 29006KT 23/15 A3006 RMK A01 T02270154  RH  064%=      5-min Rain = 0
KREE 030921Z 29007KT 23/15 A3006 RMK A01 T02270154  RH  063%=      5-min Rain = 0
KREE 030922Z 29007KT 23/15 A3006 RMK A01 T02280154  RH  063%=      5-min Rain = 0
KREE 030923Z 29007KT 23/15 A3006 RMK A01 T02270154  RH  063%=      5-min Rain = 0
KREE 030924Z 29007KT 23/15 A3006 RMK A01 T02270153  RH  063%=      5-min Rain = 0
KREE 030925Z 29007KT 23/15 A3006 RMK A01 T02270153  RH  063%=      5-min Rain = 0
KREE 030926Z 29006KT 23/15 A3006 RMK A01 T02260153  RH  063%=      5-min Rain = 0
KREE 030927Z 28006KT 23/15 A3006 RMK A01 T02260152  RH  063%=      5-min Rain = 0
KREE 030928Z 28006KT 23/15 A3006 RMK A01 T02250152  RH  063%=      5-min Rain = 0
KREE 030929Z 28006KT 23/15 A3006 RMK A01 T02250152  RH  064%=      5-min Rain = 0
KREE 030930Z 28006KT 23/15 A3005 RMK A01 T02250152  RH  064%=      5-min Rain = 0
KREE 030931Z 28005KT 23/15 A3005 RMK A01 T02250152  RH  064%=      5-min Rain = 0
KREE 030932Z 28005KT 23/15 A3005 RMK A01 T02250153  RH  064%=      5-min Rain = 0
KREE 030933Z 27005KT 22/15 A3005 RMK A01 T02240153  RH  064%=      5-min Rain = 0
KREE 030934Z 27005KT 22/15 A3005 RMK A01 T02240153  RH  064%=      5-min Rain = 0
KREE 030935Z 27005KT 22/15 A3006 RMK A01 T02240153  RH  064%=      5-min Rain = 0
KREE 030936Z 27005KT 22/15 A3006 RMK A01 T02240153  RH  064%=      5-min Rain = 0
KREE 030937Z 27006KT 22/15 A3006 RMK A01 T02240153  RH  064%=      5-min Rain = 0
KREE 030938Z 27006KT 22/15 A3006 RMK A01 T02240153  RH  064%=      5-min Rain = 0
KREE 030939Z 27006KT 22/15 A3006 RMK A01 T02230153  RH  065%=      5-min Rain = 0
KREE 030940Z 27007KT 22/15 A3006 RMK A01 T02220153  RH  065%=      5-min Rain = 0
KREE 030941Z 28007KT 22/15 A3006 RMK A01 T02210153  RH  065%=      5-min Rain = 0
KREE 030942Z 28007KT 22/15 A3006 RMK A01 T02200153  RH  065%=      5-min Rain = 0
KREE 030943Z 28007KT 22/15 A3006 RMK A01 T02200153  RH  066%=      5-min Rain = 0
KREE 030944Z 28006KT 22/15 A3006 RMK A01 T02200153  RH  066%=      5-min Rain = 0
KREE 030945Z 28006KT 22/15 A3006 RMK A01 T02200153  RH  066%=      5-min Rain = 0
KREE 030946Z 28006KT 22/15 A3006 RMK A01 T02210153  RH  065%=      5-min Rain = 0
KREE 030947Z 28006KT 22/15 A3006 RMK A01 T02220154  RH  065%=      5-min Rain = 0
KREE 030948Z 27005KT 22/15 A3006 RMK A01 T02230154  RH  065%=      5-min Rain = 0
KREE 030949Z 28005KT 22/15 A3006 RMK A01 T02230154  RH  065%=      5-min Rain = 0
KREE 030950Z 27005KT 22/15 A3006 RMK A01 T02230154  RH  065%=      5-min Rain = 0
KREE 030951Z 27005KT 22/15 A3006 RMK A01 T02240154  RH  064%=      5-min Rain = 0
KREE 030952Z 27005KT 22/15 A3006 RMK A01 T02240154  RH  064%=      5-min Rain = 0
KREE 030953Z 27005KT 22/15 A3006 RMK A01 T02240154  RH  064%=      5-min Rain = 0
KREE 030954Z 27004KT 22/15 A3006 RMK A01 T02230153  RH  064%=      5-min Rain = 0
KREE 030955Z 27004KT 22/15 A3006 RMK A01 T02230153  RH  065%=      5-min Rain = 0
KREE 030956Z 27004KT 22/15 A3006 RMK A01 T02230153  RH  065%=      5-min Rain = 0
KREE 030957Z 27005KT 22/15 A3006 RMK A01 T02220153  RH  065%=      5-min Rain = 0
KREE 030958Z 27004KT 22/15 A3006 RMK A01 T02220153  RH  065%=      5-min Rain = 0
KREE 030959Z 27004KT 22/15 A3006 RMK A01 T02210153  RH  065%=      5-min Rain = 0
KREE 031000Z 27004KT 22/15 A3006 RMK A01 T02210153  RH  065%=      5-min Rain = 0
KREE 031001Z 27003KT 22/15 A3006 RMK A01 T02210153  RH  066%=      5-min Rain = 0
KREE 031002Z 27003KT 22/15 A3006 RMK A01 T02200153  RH  066%=      5-min Rain = 0
KREE 031003Z 26002KT 22/15 A3006 RMK A01 T02200153  RH  066%=      5-min Rain = 0
KREE 031004Z 25001KT 22/15 A3006 RMK A01 T02190153  RH  066%=      5-min Rain = 0
KREE 031005Z 23001KT 22/15 A3006 RMK A01 T02190152  RH  066%=      5-min Rain = 0
KREE 031006Z 23001KT 22/15 A3006 RMK A01 T02180151  RH  066%=      5-min Rain = 0
KREE 031007Z 23001KT 22/15 A3006 RMK A01 T02170151  RH  066%=      5-min Rain = 0
KREE 031008Z 22001KT 22/15 A3007 RMK A01 T02160152  RH  067%=      5-min Rain = 0
KREE 031009Z 22001KT 22/15 A3007 RMK A01 T02150152  RH  067%=      5-min Rain = 0
KREE 031010Z 22001KT 22/15 A3007 RMK A01 T02150151  RH  067%=      5-min Rain = 0
KREE 031011Z 22001KT 21/15 A3007 RMK A01 T02140151  RH  067%=      5-min Rain = 0
KREE 031012Z 22001KT 21/15 A3007 RMK A01 T02140151  RH  067%=      5-min Rain = 0
KREE 031013Z 22001KT 21/15 A3007 RMK A01 T02130151  RH  068%=      5-min Rain = 0
KREE 031014Z 22001KT 21/15 A3007 RMK A01 T02130151  RH  068%=      5-min Rain = 0
KREE 031015Z 22002KT 21/15 A3007 RMK A01 T02130151  RH  068%=      5-min Rain = 0
KREE 031016Z 22002KT 21/15 A3006 RMK A01 T02130152  RH  068%=      5-min Rain = 0
KREE 031017Z 22002KT 21/15 A3006 RMK A01 T02130151  RH  068%=      5-min Rain = 0
KREE 031018Z 23002KT 21/15 A3006 RMK A01 T02130152  RH  068%=      5-min Rain = 0
KREE 031019Z 23002KT 21/15 A3006 RMK A01 T02140152  RH  068%=      5-min Rain = 0
KREE 031020Z 23002KT 21/15 A3006 RMK A01 T02140152  RH  068%=      5-min Rain = 0
KREE 031021Z 24002KT 21/15 A3006 RMK A01 T02140151  RH  067%=      5-min Rain = 0
KREE 031022Z 24003KT 22/15 A3006 RMK A01 T02150152  RH  067%=      5-min Rain = 0
KREE 031023Z 24003KT 22/15 A3006 RMK A01 T02160152  RH  067%=      5-min Rain = 0
KREE 031024Z 25003KT 22/16 A3006 RMK A01 T02170155  RH  068%=      5-min Rain = 0
KREE 031025Z 25004KT 22/16 A3006 RMK A01 T02180156  RH  068%=      5-min Rain = 0
KREE 031026Z 25004KT 22/16 A3006 RMK A01 T02190156  RH  067%=      5-min Rain = 0
KREE 031027Z 25004KT 22/16 A3006 RMK A01 T02200155  RH  067%=      5-min Rain = 0
KREE 031028Z 24004KT 22/16 A3006 RMK A01 T02200155  RH  067%=      5-min Rain = 0
KREE 031029Z 24004KT 22/16 A3006 RMK A01 T02200155  RH  067%=      5-min Rain = 0
KREE 031030Z 23003KT 22/16 A3006 RMK A01 T02190155  RH  067%=      5-min Rain = 0
KREE 031031Z 23003KT 22/16 A3006 RMK A01 T02190155  RH  067%=      5-min Rain = 0
KREE 031032Z 23003KT 22/16 A3006 RMK A01 T02190155  RH  067%=      5-min Rain = 0
KREE 031033Z 22003KT 22/16 A3006 RMK A01 T02190155  RH  067%=      5-min Rain = 0
KREE 031034Z 22003KT 22/15 A3006 RMK A01 T02190154  RH  067%=      5-min Rain = 0
KREE 031035Z 22003KT 22/15 A3006 RMK A01 T02190154  RH  067%=      5-min Rain = 0
KREE 031036Z 21003KT 22/16 A3006 RMK A01 T02190155  RH  067%=      5-min Rain = 0
KREE 031037Z 21003KT 22/15 A3007 RMK A01 T02190154  RH  067%=      5-min Rain = 0
KREE 031038Z 20002KT 22/15 A3007 RMK A01 T02190153  RH  066%=      5-min Rain = 0
KREE 031039Z 20002KT 22/15 A3007 RMK A01 T02190152  RH  065%=      5-min Rain = 0
KREE 031040Z 20003KT 22/15 A3007 RMK A01 T02180151  RH  066%=      5-min Rain = 0
KREE 031041Z 20003KT 22/15 A3007 RMK A01 T02160152  RH  067%=      5-min Rain = 0
KREE 031042Z 20003KT 22/15 A3007 RMK A01 T02150151  RH  067%=      5-min Rain = 0
KREE 031043Z 20003KT 22/15 A3007 RMK A01 T02150151  RH  067%=      5-min Rain = 0
KREE 031044Z 20004KT 21/15 A3007 RMK A01 T02140152  RH  067%=      5-min Rain = 0
KREE 031045Z 20004KT 21/15 A3007 RMK A01 T02140152  RH  068%=      5-min Rain = 0
KREE 031046Z 19004KT 21/15 A3006 RMK A01 T02140152  RH  068%=      5-min Rain = 0
KREE 031047Z 18005KT 22/15 A3006 RMK A01 T02150153  RH  067%=      5-min Rain = 0
KREE 031048Z 18005KT 22/15 A3006 RMK A01 T02160153  RH  067%=      5-min Rain = 0
KREE 031049Z 18006KT 22/15 A3006 RMK A01 T02170153  RH  067%=      5-min Rain = 0
KREE 031050Z 18005KT 22/15 A3006 RMK A01 T02180153  RH  067%=      5-min Rain = 0
KREE 031051Z 18005KT 22/15 A3006 RMK A01 T02180153  RH  066%=      5-min Rain = 0
KREE 031052Z 18005KT 22/15 A3006 RMK A01 T02190153  RH  066%=      5-min Rain = 0
KREE 031053Z 18005KT 22/15 A3006 RMK A01 T02190153  RH  066%=      5-min Rain = 0
KREE 031054Z 18005KT 22/15 A3006 RMK A01 T02200153  RH  065%=      5-min Rain = 0
KREE 031055Z 17006KT 22/15 A3007 RMK A01 T02210152  RH  065%=      5-min Rain = 0
KREE 031056Z 16006KT 22/15 A3007 RMK A01 T02220152  RH  065%=      5-min Rain = 0
KREE 031057Z 16006KT 22/15 A3007 RMK A01 T02210152  RH  065%=      5-min Rain = 0
KREE 031058Z 16005KT 22/15 A3007 RMK A01 T02200152  RH  066%=      5-min Rain = 0
KREE 031059Z 16005KT 22/15 A3007 RMK A01 T02180153  RH  066%=      5-min Rain = 0
KREE 031100Z 16005KT 22/15 A3007 RMK A01 T02170153  RH  067%=      5-min Rain = 0
KREE 031101Z 17005KT 22/15 A3007 RMK A01 T02170154  RH  067%=      5-min Rain = 0
KREE 031102Z 17005KT 22/15 A3007 RMK A01 T02170154  RH  068%=      5-min Rain = 0
KREE 031103Z 17004KT 22/15 A3007 RMK A01 T02170154  RH  068%=      5-min Rain = 0
KREE 031104Z 17004KT 22/15 A3007 RMK A01 T02170154  RH  068%=      5-min Rain = 0
KREE 031105Z 17004KT 22/15 A3007 RMK A01 T02170154  RH  068%=      5-min Rain = 0
KREE 031106Z 17004KT 22/15 A3007 RMK A01 T02170154  RH  067%=      5-min Rain = 0
KREE 031107Z 17004KT 22/15 A3007 RMK A01 T02170154  RH  067%=      5-min Rain = 0
KREE 031108Z 17003KT 22/15 A3007 RMK A01 T02180154  RH  067%=      5-min Rain = 0
KREE 031109Z 17003KT 22/15 A3007 RMK A01 T02180154  RH  067%=      5-min Rain = 0
KREE 031110Z 17003KT 22/15 A3007 RMK A01 T02180154  RH  067%=      5-min Rain = 0
KREE 031111Z 17004KT 22/15 A3007 RMK A01 T02180154  RH  067%=      5-min Rain = 0
KREE 031112Z 17004KT 22/15 A3007 RMK A01 T02180154  RH  067%=      5-min Rain = 0
KREE 031113Z 17003KT 22/15 A3007 RMK A01 T02190154  RH  067%=      5-min Rain = 0
KREE 031114Z 17003KT 22/15 A3007 RMK A01 T02190154  RH  067%=      5-min Rain = 0
KREE 031115Z 18003KT 22/16 A3007 RMK A01 T02190155  RH  067%=      5-min Rain = 0
KREE 031116Z 18003KT 22/15 A3007 RMK A01 T02200154  RH  066%=      5-min Rain = 0
KREE 031117Z 18004KT 22/15 A3007 RMK A01 T02200154  RH  066%=      5-min Rain = 0
KREE 031118Z 18004KT 22/15 A3007 RMK A01 T02210154  RH  066%=      5-min Rain = 0
KREE 031119Z 18004KT 22/15 A3007 RMK A01 T02210153  RH  065%=      5-min Rain = 0
KREE 031120Z 18003KT 22/15 A3007 RMK A01 T02210153  RH  065%=      5-min Rain = 0
KREE 031121Z 18003KT 22/15 A3007 RMK A01 T02210154  RH  066%=      5-min Rain = 0
KREE 031122Z 18003KT 22/15 A3007 RMK A01 T02210154  RH  066%=      5-min Rain = 0
KREE 031123Z 18003KT 22/15 A3007 RMK A01 T02210154  RH  066%=      5-min Rain = 0
KREE 031124Z 17003KT 22/15 A3007 RMK A01 T02210154  RH  065%=      5-min Rain = 0
KREE 031125Z 16004KT 22/15 A3007 RMK A01 T02210153  RH  065%=      5-min Rain = 0
KREE 031126Z 15004KT 22/15 A3007 RMK A01 T02200154  RH  066%=      5-min Rain = 0
KREE 031127Z 15004KT 22/15 A3007 RMK A01 T02190154  RH  067%=      5-min Rain = 0
KREE 031128Z 14004KT 22/15 A3007 RMK A01 T02190154  RH  066%=      5-min Rain = 0
KREE 031129Z 14004KT 22/15 A3007 RMK A01 T02190154  RH  066%=      5-min Rain = 0
KREE 031130Z 14005KT 22/15 A3007 RMK A01 T02190154  RH  067%=      5-min Rain = 0
KREE 031131Z 14005KT 22/15 A3007 RMK A01 T02180153  RH  067%=      5-min Rain = 0
KREE 031132Z 14005KT 22/15 A3007 RMK A01 T02170153  RH  067%=      5-min Rain = 0
KREE 031133Z 14005KT 22/15 A3007 RMK A01 T02170152  RH  067%=      5-min Rain = 0
KREE 031134Z 14005KT 22/15 A3007 RMK A01 T02160152  RH  067%=      5-min Rain = 0
KREE 031135Z 14004KT 22/15 A3007 RMK A01 T02150152  RH  067%=      5-min Rain = 0
KREE 031136Z 14004KT 22/15 A3007 RMK A01 T02150151  RH  067%=      5-min Rain = 0
KREE 031137Z 14004KT 22/15 A3007 RMK A01 T02150151  RH  067%=      5-min Rain = 0
KREE 031138Z 14004KT 21/15 A3007 RMK A01 T02140151  RH  067%=      5-min Rain = 0
KREE 031139Z 14004KT 21/15 A3007 RMK A01 T02140151  RH  067%=      5-min Rain = 0
KREE 031140Z 14004KT 21/15 A3007 RMK A01 T02140151  RH  067%=      5-min Rain = 0
KREE 031141Z 14004KT 21/15 A3007 RMK A01 T02140151  RH  067%=      5-min Rain = 0
KREE 031142Z 14004KT 21/15 A3007 RMK A01 T02140151  RH  067%=      5-min Rain = 0
KREE 031143Z 14004KT 21/15 A3007 RMK A01 T02140151  RH  067%=      5-min Rain = 0
KREE 031144Z 14004KT 21/15 A3007 RMK A01 T02140151  RH  067%=      5-min Rain = 0
KREE 031145Z 14004KT 21/15 A3007 RMK A01 T02140151  RH  067%=      5-min Rain = 0
KREE 031146Z 14004KT 21/15 A3007 RMK A01 T02140151  RH  067%=      5-min Rain = 0
KREE 031147Z 13004KT 21/15 A3007 RMK A01 T02140151  RH  068%=      5-min Rain = 0
KREE 031148Z 13004KT 21/15 A3007 RMK A01 T02130151  RH  068%=      5-min Rain = 0
KREE 031149Z 13004KT 21/15 A3007 RMK A01 T02140151  RH  067%=      5-min Rain = 0
KREE 031150Z 13004KT 22/15 A3007 RMK A01 T02150151  RH  067%=      5-min Rain = 0
KREE 031151Z 13004KT 22/15 A3007 RMK A01 T02160151  RH  066%=      5-min Rain = 0
KREE 031152Z 13004KT 22/15 A3007 RMK A01 T02160151  RH  066%=      5-min Rain = 0
KREE 031153Z 13004KT 22/15 A3007 RMK A01 T02170152  RH  066%=      5-min Rain = 0
KREE 031154Z 13004KT 22/15 A3008 RMK A01 T02180152  RH  066%=      5-min Rain = 0
KREE 031155Z 13003KT 22/15 A3008 RMK A01 T02180152  RH  066%=      5-min Rain = 0
KREE 031156Z 13003KT 22/15 A3008 RMK A01 T02180152  RH  066%=      5-min Rain = 0
KREE 031157Z 13003KT 22/15 A3008 RMK A01 T02180152  RH  066%=      5-min Rain = 0
KREE 031158Z 13004KT 22/15 A3008 RMK A01 T02180152  RH  066%=      5-min Rain = 0
KREE 031159Z 13004KT 22/15 A3008 RMK A01 T02180152  RH  066%=      5-min Rain = 0
KREE 031200Z 13005KT 22/15 A3008 RMK A01 T02180152  RH  066%=      5-min Rain = 0
KREE 031201Z 13005KT 22/15 A3008 RMK A01 T02170152  RH  066%=      5-min Rain = 0
KREE 031202Z 13006KT 22/15 A3008 RMK A01 T02170151  RH  066%=      5-min Rain = 0
KREE 031203Z 13006KT 22/15 A3008 RMK A01 T02170151  RH  066%=      5-min Rain = 0
KREE 031204Z 13007KT 22/15 A3008 RMK A01 T02180151  RH  066%=      5-min Rain = 0
KREE 031205Z 13006KT 22/15 A3008 RMK A01 T02180151  RH  066%=      5-min Rain = 0
KREE 031206Z 13006KT 22/15 A3008 RMK A01 T02190152  RH  066%=      5-min Rain = 0
KREE 031207Z 13005KT 22/15 A3008 RMK A01 T02190152  RH  065%=      5-min Rain = 0
KREE 031208Z 13005KT 22/15 A3008 RMK A01 T02190151  RH  065%=      5-min Rain = 0
KREE 031209Z 13006KT 22/15 A3008 RMK A01 T02200151  RH  065%=      5-min Rain = 0
KREE 031210Z 13005KT 22/15 A3008 RMK A01 T02200151  RH  065%=      5-min Rain = 0
KREE 031211Z 13006KT 22/15 A3008 RMK A01 T02220151  RH  064%=      5-min Rain = 0
KREE 031212Z 13006KT 22/15 A3008 RMK A01 T02240151  RH  064%=      5-min Rain = 0
KREE 031213Z 13005KT 23/15 A3008 RMK A01 T02260152  RH  063%=      5-min Rain = 0
KREE 031214Z 13005KT 23/15 A3009 RMK A01 T02270153  RH  063%=      5-min Rain = 0
KREE 031215Z 13006KT 23/15 A3009 RMK A01 T02280153  RH  063%=      5-min Rain = 0
KREE 031216Z 13005KT 23/15 A3009 RMK A01 T02290153  RH  062%=      5-min Rain = 0
KREE 031217Z 13005KT 23/15 A3009 RMK A01 T02290153  RH  062%=      5-min Rain = 0
KREE 031218Z 13005KT 23/15 A3008 RMK A01 T02300153  RH  062%=      5-min Rain = 0
KREE 031219Z 13005KT 23/15 A3008 RMK A01 T02300153  RH  062%=      5-min Rain = 0
KREE 031220Z 13005KT 23/15 A3008 RMK A01 T02310153  RH  062%=      5-min Rain = 0
KREE 031221Z 13006KT 23/15 A3008 RMK A01 T02310153  RH  061%=      5-min Rain = 0
KREE 031222Z 13005KT 23/15 A3008 RMK A01 T02320153  RH  061%=      5-min Rain = 0
KREE 031223Z 13006KT 23/15 A3008 RMK A01 T02320153  RH  061%=      5-min Rain = 0
KREE 031224Z 12006KT 23/15 A3008 RMK A01 T02330153  RH  061%=      5-min Rain = 0
KREE 031225Z 12005KT 23/15 A3008 RMK A01 T02330154  RH  061%=      5-min Rain = 0
KREE 031226Z 12005KT 23/15 A3008 RMK A01 T02340154  RH  061%=      5-min Rain = 0
KREE 031227Z 13006KT 23/15 A3008 RMK A01 T02340154  RH  061%=      5-min Rain = 0
KREE 031228Z 13006KT 24/16 A3008 RMK A01 T02350155  RH  061%=      5-min Rain = 0
KREE 031229Z 13007KT 24/16 A3008 RMK A01 T02350155  RH  061%=      5-min Rain = 0
KREE 031230Z 13006KT 24/16 A3009 RMK A01 T02360155  RH  061%=      5-min Rain = 0
KREE 031231Z 13007KT 24/16 A3009 RMK A01 T02360156  RH  060%=      5-min Rain = 0
KREE 031232Z 13007KT 24/16 A3009 RMK A01 T02370156  RH  060%=      5-min Rain = 0
KREE 031233Z 13007KT 24/16 A3009 RMK A01 T02380156  RH  060%=      5-min Rain = 0
KREE 031234Z 13007KT 24/16 A3009 RMK A01 T02380156  RH  060%=      5-min Rain = 0
KREE 031235Z 13007KT 24/16 A3009 RMK A01 T02380156  RH  060%=      5-min Rain = 0
KREE 031236Z 13007KT 24/16 A3009 RMK A01 T02390156  RH  060%=      5-min Rain = 0
KREE 031237Z 13008KT 24/16 A3009 RMK A01 T02390156  RH  060%=      5-min Rain = 0
KREE 031238Z 13008KT 24/16 A3009 RMK A01 T02400155  RH  059%=      5-min Rain = 0
KREE 031239Z 13008KT 24/16 A3009 RMK A01 T02400155  RH  059%=      5-min Rain = 0
KREE 031240Z 13009KT 24/16 A3009 RMK A01 T02410155  RH  058%=      5-min Rain = 0
KREE 031241Z 13007KT 24/16 A3009 RMK A01 T02420155  RH  058%=      5-min Rain = 0
KREE 031242Z 13008KT 24/16 A3009 RMK A01 T02420155  RH  058%=      5-min Rain = 0
KREE 031243Z 14008KT 24/15 A3009 RMK A01 T02430154  RH  058%=      5-min Rain = 0
KREE 031244Z 14008KT 24/15 A3009 RMK A01 T02440154  RH  057%=      5-min Rain = 0
KREE 031245Z 14008KT 24/15 A3009 RMK A01 T02440154  RH  057%=      5-min Rain = 0
KREE 031246Z 14008KT 25/15 A3009 RMK A01 T02450153  RH  057%=      5-min Rain = 0
KREE 031247Z 14008KT 25/15 A3009 RMK A01 T02460153  RH  056%=      5-min Rain = 0
KREE 031248Z 14008KT 25/15 A3009 RMK A01 T02470153  RH  056%=      5-min Rain = 0
KREE 031249Z 14007KT 25/15 A3009 RMK A01 T02470153  RH  056%=      5-min Rain = 0
KREE 031250Z 15008KT 25/15 A3009 RMK A01 T02480151  RH  055%=      5-min Rain = 0
KREE 031251Z 15007KT 25/15 A3009 RMK A01 T02480152  RH  055%=      5-min Rain = 0
KREE 031252Z 14006KT 25/15 A3009 RMK A01 T02490151  RH  055%=      5-min Rain = 0
KREE 031253Z 15006KT 25/15 A3009 RMK A01 T02490153  RH  055%=      5-min Rain = 0
KREE 031254Z 15006KT 25/15 A3009 RMK A01 T02500152  RH  054%=      5-min Rain = 0
KREE 031255Z 15005KT 25/15 A3009 RMK A01 T02510152  RH  054%=      5-min Rain = 0
KREE 031256Z 15007KT 25/15 A3009 RMK A01 T02520153  RH  054%=      5-min Rain = 0
KREE 031257Z 15008KT 25/15 A3009 RMK A01 T02530150  RH  053%=      5-min Rain = 0
KREE 031258Z 15007KT 25/15 A3009 RMK A01 T02540150  RH  052%=      5-min Rain = 0
KREE 031259Z 15006KT 26/15 A3009 RMK A01 T02550150  RH  052%=      5-min Rain = 0
KREE 031300Z 15006KT 26/15 A3009 RMK A01 T02550151  RH  052%=      5-min Rain = 0
KREE 031301Z 15006KT 26/15 A3009 RMK A01 T02560151  RH  052%=      5-min Rain = 0
KREE 031302Z 15007KT 26/15 A3009 RMK A01 T02570151  RH  052%=      5-min Rain = 0
KREE 031303Z 15008KT 26/15 A3009 RMK A01 T02570150  RH  051%=      5-min Rain = 0
KREE 031304Z 15008KT 26/15 A3009 RMK A01 T02580147  RH  050%=      5-min Rain = 0
KREE 031305Z 15008KT 26/15 A3009 RMK A01 T02580148  RH  051%=      5-min Rain = 0
KREE 031306Z 15008KT 26/15 A3009 RMK A01 T02580147  RH  050%=      5-min Rain = 0
KREE 031307Z 15007KT 26/15 A3009 RMK A01 T02590148  RH  050%=      5-min Rain = 0
KREE 031308Z 15007KT 26/15 A3009 RMK A01 T02600149  RH  050%=      5-min Rain = 0
KREE 031309Z 16007KT 26/15 A3009 RMK A01 T02610149  RH  050%=      5-min Rain = 0
KREE 031310Z 16007KT 26/15 A3009 RMK A01 T02610148  RH  050%=      5-min Rain = 0
KREE 031311Z 16007KT 26/15 A3009 RMK A01 T02620147  RH  049%=      5-min Rain = 0
KREE 031312Z 16009KT 26/15 A3008 RMK A01 T02630148  RH  049%=      5-min Rain = 0
KREE 031313Z 16009KT 26/15 A3008 RMK A01 T02640146  RH  048%=      5-min Rain = 0
KREE 031314Z 16009KT 26/15 A3008 RMK A01 T02640146  RH  048%=      5-min Rain = 0
KREE 031315Z 15009KT 26/15 A3009 RMK A01 T02640148  RH  049%=      5-min Rain = 0
KREE 031316Z 15007KT 26/15 A3009 RMK A01 T02640149  RH  049%=      5-min Rain = 0
KREE 031317Z 15010KT 26/15 A3009 RMK A01 T02640149  RH  049%=      5-min Rain = 0
KREE 031318Z 16011KT 26/15 A3009 RMK A01 T02640148  RH  049%=      5-min Rain = 0
KREE 031319Z 15010KT 26/15 A3009 RMK A01 T02630147  RH  049%=      5-min Rain = 0
KREE 031320Z 16010KT 26/15 A3009 RMK A01 T02630148  RH  049%=      5-min Rain = 0
KREE 031321Z 15009KT 26/15 A3009 RMK A01 T02630148  RH  049%=      5-min Rain = 0
KREE 031322Z 16009KT 26/15 A3009 RMK A01 T02630148  RH  049%=      5-min Rain = 0
KREE 031323Z 16009KT 26/15 A3009 RMK A01 T02640149  RH  049%=      5-min Rain = 0
KREE 031324Z 16009KT 27/15 A3009 RMK A01 T02650148  RH  049%=      5-min Rain = 0
KREE 031325Z 15009KT 27/15 A3009 RMK A01 T02650149  RH  049%=      5-min Rain = 0
KREE 031326Z 16010KT 27/15 A3009 RMK A01 T02650147  RH  048%=      5-min Rain = 0
KREE 031327Z 16011KT 27/15 A3009 RMK A01 T02650147  RH  048%=      5-min Rain = 0
KREE 031328Z 16013KT 27/15 A3009 RMK A01 T02660147  RH  048%=      5-min Rain = 0
KREE 031329Z 16011KT 27/15 A3009 RMK A01 T02660147  RH  048%=      5-min Rain = 0
KREE 031330Z 15011KT 27/15 A3009 RMK A01 T02650147  RH  048%=      5-min Rain = 0
KREE 031331Z 16011KT 27/15 A3009 RMK A01 T02650147  RH  048%=      5-min Rain = 0
KREE 031332Z 16011KT 27/15 A3009 RMK A01 T02660147  RH  048%=      5-min Rain = 0
KREE 031333Z 16011KT 27/15 A3009 RMK A01 T02670147  RH  048%=      5-min Rain = 0
KREE 031334Z 16011KT 27/15 A3009 RMK A01 T02670147  RH  048%=      5-min Rain = 0
KREE 031335Z 16012KT 27/15 A3009 RMK A01 T02670147  RH  048%=      5-min Rain = 0
KREE 031336Z 16013KT 27/15 A3009 RMK A01 T02680145  RH  047%=      5-min Rain = 0
KREE 031337Z 16012KT 27/15 A3009 RMK A01 T02680147  RH  047%=      5-min Rain = 0
KREE 031338Z 16012KT 27/15 A3009 RMK A01 T02680146  RH  047%=      5-min Rain = 0
KREE 031339Z 16015KT 27/15 A3009 RMK A01 T02690146  RH  047%=      5-min Rain = 0
KREE 031340Z 16014KT 27/15 A3009 RMK A01 T02690146  RH  047%=      5-min Rain = 0
KREE 031341Z 17014KT 27/15 A3009 RMK A01 T02690146  RH  047%=      5-min Rain = 0
KREE 031342Z 17012KT 27/15 A3009 RMK A01 T02690147  RH  047%=      5-min Rain = 0
KREE 031343Z 17011KT 27/15 A3009 RMK A01 T02690148  RH  047%=      5-min Rain = 0
KREE 031344Z 18012KT 27/15 A3009 RMK A01 T02710149  RH  047%=      5-min Rain = 0
KREE 031345Z 17014G19KT 27/15 A3009 RMK A01 T02730150  RH  047%=      5-min Rain = 0
KREE 031346Z 18016KT 27/15 A3009 RMK A01 T02730149  RH  047%=      5-min Rain = 0
KREE 031347Z 18015KT 27/15 A3009 RMK A01 T02710150  RH  047%=      5-min Rain = 0
KREE 031348Z 17012KT 27/15 A3009 RMK A01 T02700150  RH  048%=      5-min Rain = 0
KREE 031349Z 17014KT 27/15 A3009 RMK A01 T02700149  RH  047%=      5-min Rain = 0
KREE 031350Z 17012KT 27/15 A3009 RMK A01 T02710150  RH  047%=      5-min Rain = 0
KREE 031351Z 17014KT 27/15 A3009 RMK A01 T02720150  RH  047%=      5-min Rain = 0
KREE 031352Z 17015KT 27/15 A3009 RMK A01 T02730150  RH  047%=      5-min Rain = 0
KREE 031353Z 17015KT 27/15 A3009 RMK A01 T02720150  RH  047%=      5-min Rain = 0
KREE 031354Z 17015KT 27/15 A3009 RMK A01 T02720150  RH  047%=      5-min Rain = 0
KREE 031355Z 17013KT 27/15 A3009 RMK A01 T02720150  RH  047%=      5-min Rain = 0
KREE 031356Z 16016KT 27/15 A3009 RMK A01 T02730149  RH  047%=      5-min Rain = 0
KREE 031357Z 17016KT 27/15 A3009 RMK A01 T02730149  RH  047%=      5-min Rain = 0
KREE 031358Z 17015KT 27/15 A3009 RMK A01 T02720150  RH  047%=      5-min Rain = 0
KREE 031359Z 17015KT 27/15 A3009 RMK A01 T02720150  RH  047%=      5-min Rain = 0
KREE 031400Z 17016KT 27/15 A3009 RMK A01 T02720150  RH  047%=      5-min Rain = 0
KREE 031401Z 16015KT 27/15 A3009 RMK A01 T02720150  RH  047%=      5-min Rain = 0
KREE 031402Z 16016KT 27/15 A3009 RMK A01 T02730150  RH  047%=      5-min Rain = 0
KREE 031403Z 16016KT 27/15 A3009 RMK A01 T02730150  RH  047%=      5-min Rain = 0
KREE 031404Z 16017KT 27/15 A3009 RMK A01 T02730151  RH  047%=      5-min Rain = 0
KREE 031405Z 17017KT 27/15 A3009 RMK A01 T02730151  RH  047%=      5-min Rain = 0
KREE 031406Z 17016KT 27/15 A3009 RMK A01 T02730151  RH  047%=      5-min Rain = 0
KREE 031407Z 17014KT 27/15 A3009 RMK A01 T02730152  RH  047%=      5-min Rain = 0
KREE 031408Z 17015KT 28/15 A3009 RMK A01 T02750152  RH  047%=      5-min Rain = 0
KREE 031409Z 17014KT 28/15 A3009 RMK A01 T02760153  RH  047%=      5-min Rain = 0
KREE 031410Z 18016KT 28/15 A3009 RMK A01 T02760153  RH  047%=      5-min Rain = 0
KREE 031411Z 18017KT 28/15 A3009 RMK A01 T02760154  RH  047%=      5-min Rain = 0
KREE 031412Z 18017KT 28/15 A3009 RMK A01 T02750154  RH  047%=      5-min Rain = 0
KREE 031413Z 18015G20KT 27/15 A3009 RMK A01 T02740154  RH  048%=      5-min Rain = 0
KREE 031414Z 18016KT 27/16 A3009 RMK A01 T02740155  RH  048%=      5-min Rain = 0
KREE 031415Z 17016KT 27/16 A3009 RMK A01 T02740155  RH  048%=      5-min Rain = 0
KREE 031416Z 16016KT 28/16 A3009 RMK A01 T02750155  RH  048%=      5-min Rain = 0
KREE 031417Z 16016KT 28/16 A3009 RMK A01 T02760156  RH  048%=      5-min Rain = 0
KREE 031418Z 16016KT 28/16 A3009 RMK A01 T02760156  RH  048%=      5-min Rain = 0
KREE 031419Z 17017KT 28/16 A3009 RMK A01 T02760156  RH  048%=      5-min Rain = 0
KREE 031420Z 16018KT 28/16 A3009 RMK A01 T02760157  RH  048%=      5-min Rain = 0
KREE 031421Z 16018KT 28/16 A3009 RMK A01 T02760156  RH  048%=      5-min Rain = 0
KREE 031422Z 17017KT 28/16 A3009 RMK A01 T02750157  RH  048%=      5-min Rain = 0
KREE 031423Z 17016KT 28/16 A3009 RMK A01 T02750157  RH  048%=      5-min Rain = 0
KREE 031424Z 18017KT 28/16 A3009 RMK A01 T02760156  RH  048%=      5-min Rain = 0
KREE 031425Z 17016KT 28/16 A3009 RMK A01 T02760157  RH  048%=      5-min Rain = 0
KREE 031426Z 17015KT 28/16 A3009 RMK A01 T02760157  RH  048%=      5-min Rain = 0
KREE 031427Z 17016KT 28/16 A3009 RMK A01 T02770157  RH  048%=      5-min Rain = 0
KREE 031428Z 17015KT 28/16 A3009 RMK A01 T02770158  RH  048%=      5-min Rain = 0
KREE 031429Z 17013KT 28/16 A3009 RMK A01 T02780158  RH  048%=      5-min Rain = 0
KREE 031430Z 17014KT 28/16 A3009 RMK A01 T02790159  RH  048%=      5-min Rain = 0
KREE 031431Z 17017KT 28/16 A3009 RMK A01 T02800159  RH  048%=      5-min Rain = 0
KREE 031432Z 17016KT 28/16 A301 RMK A01 T02790159  RH  048%=      5-min Rain = 0
KREE 031433Z 18016KT 28/16 A301 RMK A01 T02780159  RH  048%=      5-min Rain = 0
KREE 031434Z 18015KT 28/16 A301 RMK A01 T02780159  RH  048%=      5-min Rain = 0
KREE 031435Z 18014KT 28/16 A301 RMK A01 T02770159  RH  048%=      5-min Rain = 0
KREE 031436Z 18015KT 28/16 A301 RMK A01 T02770159  RH  048%=      5-min Rain = 0
KREE 031437Z 18014KT 28/16 A301 RMK A01 T02790159  RH  048%=      5-min Rain = 0
KREE 031438Z 17012KT 28/16 A301 RMK A01 T02800159  RH  048%=      5-min Rain = 0
KREE 031439Z 16013KT 28/16 A301 RMK A01 T02820160  RH  047%=      5-min Rain = 0
KREE 031440Z 16015KT 28/16 A301 RMK A01 T02830160  RH  047%=      5-min Rain = 0
KREE 031441Z 16016KT 28/16 A301 RMK A01 T02830159  RH  047%=      5-min Rain = 0
KREE 031442Z 16014KT 28/16 A301 RMK A01 T02810159  RH  047%=      5-min Rain = 0
KREE 031443Z 16015KT 28/16 A301 RMK A01 T02800159  RH  048%=      5-min Rain = 0
KREE 031444Z 16013KT 28/16 A301 RMK A01 T02790159  RH  048%=      5-min Rain = 0
KREE 031445Z 16014KT 28/16 A301 RMK A01 T02790159  RH  048%=      5-min Rain = 0
KREE 031446Z 16015KT 28/16 A301 RMK A01 T02800159  RH  048%=      5-min Rain = 0
KREE 031447Z 16012KT 28/16 A301 RMK A01 T02800159  RH  048%=      5-min Rain = 0
KREE 031448Z 16015KT 28/16 A301 RMK A01 T02810159  RH  047%=      5-min Rain = 0
KREE 031449Z 17014KT 28/16 A301 RMK A01 T02820159  RH  047%=      5-min Rain = 0
KREE 031450Z 18014KT 28/16 A301 RMK A01 T02820159  RH  047%=      5-min Rain = 0
KREE 031451Z 17014KT 28/16 A301 RMK A01 T02830158  RH  047%=      5-min Rain = 0
KREE 031452Z 16014KT 28/16 A3011 RMK A01 T02840159  RH  047%=      5-min Rain = 0
KREE 031453Z 18012KT 28/16 A3011 RMK A01 T02840159  RH  047%=      5-min Rain = 0
KREE 031454Z 19011KT 28/16 A3011 RMK A01 T02840159  RH  047%=      5-min Rain = 0
KREE 031455Z 18012KT 29/16 A3011 RMK A01 T02850159  RH  046%=      5-min Rain = 0
KREE 031456Z 18012KT 29/16 A3011 RMK A01 T02870158  RH  046%=      5-min Rain = 0
KREE 031457Z 17013G18KT 29/16 A3011 RMK A01 T02870158  RH  046%=      5-min Rain = 0
KREE 031458Z 17013KT 29/16 A3011 RMK A01 T02860158  RH  046%=      5-min Rain = 0
KREE 031459Z 16014KT 29/16 A3011 RMK A01 T02860157  RH  045%=      5-min Rain = 0
KREE 031500Z 16013KT 29/16 A3011 RMK A01 T02850157  RH  046%=      5-min Rain = 0
KREE 031501Z 16014KT 29/16 A3011 RMK A01 T02850158  RH  046%=      5-min Rain = 0
KREE 031502Z 16014KT 29/16 A3011 RMK A01 T02860155  RH  045%=      5-min Rain = 0
KREE 031503Z 16014KT 29/16 A3011 RMK A01 T02860155  RH  045%=      5-min Rain = 0
KREE 031504Z 16013KT 29/16 A3011 RMK A01 T02860155  RH  045%=      5-min Rain = 0
KREE 031505Z 15012KT 29/16 A3011 RMK A01 T02850156  RH  045%=      5-min Rain = 0
KREE 031506Z 16015KT 29/16 A3011 RMK A01 T02860156  RH  045%=      5-min Rain = 0
KREE 031507Z 17012KT 29/16 A3011 RMK A01 T02880157  RH  045%=      5-min Rain = 0
KREE 031508Z 17011KT 29/16 A3011 RMK A01 T02890156  RH  045%=      5-min Rain = 0
KREE 031509Z 17011KT 29/16 A3011 RMK A01 T02880157  RH  045%=      5-min Rain = 0
KREE 031510Z 18010KT 29/16 A3011 RMK A01 T02870157  RH  045%=      5-min Rain = 0
KREE 031511Z 17014KT 29/15 A3011 RMK A01 T02870154  RH  044%=      5-min Rain = 0
KREE 031512Z 17013KT 29/15 A3011 RMK A01 T02880153  RH  044%=      5-min Rain = 0
KREE 031513Z 17010KT 29/15 A3011 RMK A01 T02870154  RH  044%=      5-min Rain = 0
KREE 031514Z 18013KT 29/16 A3011 RMK A01 T02880155  RH  044%=      5-min Rain = 0
KREE 031515Z 18013KT 29/15 A3012 RMK A01 T02890154  RH  044%=      5-min Rain = 0
KREE 031516Z 18012KT 29/15 A3012 RMK A01 T02880154  RH  044%=      5-min Rain = 0
KREE 031517Z 17012KT 29/16 A3012 RMK A01 T02870155  RH  045%=      5-min Rain = 0
KREE 031518Z 17010KT 29/16 A3012 RMK A01 T02880155  RH  044%=      5-min Rain = 0
KREE 031519Z 16011KT 29/16 A3012 RMK A01 T02890155  RH  044%=      5-min Rain = 0
KREE 031520Z 15012KT 29/15 A3012 RMK A01 T02910154  RH  043%=      5-min Rain = 0
KREE 031521Z 14012KT 29/15 A3012 RMK A01 T02910154  RH  043%=      5-min Rain = 0
KREE 031522Z 15012KT 29/15 A3012 RMK A01 T02920154  RH  043%=      5-min Rain = 0
KREE 031523Z 15010KT 29/16 A3012 RMK A01 T02910156  RH  044%=      5-min Rain = 0
KREE 031524Z 17009KT 29/16 A3012 RMK A01 T02920156  RH  044%=      5-min Rain = 0
KREE 031525Z 16013KT 29/16 A3012 RMK A01 T02940155  RH  043%=      5-min Rain = 0
KREE 031526Z 15012KT 30/15 A3012 RMK A01 T02970153  RH  042%=      5-min Rain = 0
KREE 031527Z 15010KT 30/15 A3012 RMK A01 T02960154  RH  042%=      5-min Rain = 0
KREE 031528Z 15010KT 30/15 A3012 RMK A01 T02960153  RH  042%=      5-min Rain = 0
KREE 031529Z 14011KT 30/15 A3012 RMK A01 T02950154  RH  043%=      5-min Rain = 0
KREE 031530Z 14011KT 29/16 A3012 RMK A01 T02940155  RH  043%=      5-min Rain = 0
KREE 031531Z 15011KT 30/16 A3012 RMK A01 T02950155  RH  043%=      5-min Rain = 0
KREE 031532Z 16011KT 30/15 A3012 RMK A01 T02970154  RH  042%=      5-min Rain = 0
KREE 031533Z 16009KT 30/15 A3012 RMK A01 T02970154  RH  042%=      5-min Rain = 0
KREE 031534Z 16013KT 30/16 A3012 RMK A01 T02960155  RH  042%=      5-min Rain = 0
KREE 031535Z 16011KT 30/16 A3012 RMK A01 T02950155  RH  043%=      5-min Rain = 0
KREE 031536Z 17010KT 30/16 A3012 RMK A01 T02950155  RH  043%=      5-min Rain = 0
KREE 031537Z 15011KT 29/16 A3012 RMK A01 T02940156  RH  043%=      5-min Rain = 0
KREE 031538Z 14012KT 29/16 A3012 RMK A01 T02940156  RH  043%=      5-min Rain = 0
KREE 031539Z 14012KT 30/16 A3012 RMK A01 T02970157  RH  043%=      5-min Rain = 0
KREE 031540Z 15012KT 30/16 A3012 RMK A01 T02980156  RH  042%=      5-min Rain = 0
KREE 031541Z 15012KT 30/16 A3012 RMK A01 T02980156  RH  042%=      5-min Rain = 0
KREE 031542Z 15009KT 30/16 A3012 RMK A01 T02960157  RH  043%=      5-min Rain = 0
KREE 031543Z 16009KT 30/16 A3012 RMK A01 T02960158  RH  043%=      5-min Rain = 0
KREE 031544Z 14010KT 30/16 A3012 RMK A01 T02970157  RH  043%=      5-min Rain = 0
KREE 031545Z 14010KT 30/16 A3012 RMK A01 T02980157  RH  042%=      5-min Rain = 0
KREE 031546Z 13010KT 30/16 A3012 RMK A01 T02990157  RH  042%=      5-min Rain = 0
KREE 031547Z 14010KT 30/16 A3011 RMK A01 T02990159  RH  043%=      5-min Rain = 0
KREE 031548Z 13012KT 30/16 A3011 RMK A01 T03000159  RH  043%=      5-min Rain = 0
KREE 031549Z 14012KT 30/16 A3011 RMK A01 T03000159  RH  043%=      5-min Rain = 0
KREE 031550Z 14013KT 30/16 A3011 RMK A01 T03020159  RH  042%=      5-min Rain = 0
KREE 031551Z 14011KT 30/16 A3011 RMK A01 T03020159  RH  042%=      5-min Rain = 0
KREE 031552Z 15010KT 30/16 A3011 RMK A01 T03010160  RH  043%=      5-min Rain = 0
KREE 031553Z 15011KT 30/16 A3011 RMK A01 T03010159  RH  042%=      5-min Rain = 0
KREE 031554Z 16012KT 30/16 A3011 RMK A01 T03020158  RH  042%=      5-min Rain = 0
KREE 031555Z 16012KT 30/16 A3011 RMK A01 T03010158  RH  042%=      5-min Rain = 0
KREE 031556Z 16010KT 30/16 A3011 RMK A01 T02980158  RH  043%=      5-min Rain = 0
KREE 031557Z 14013KT 30/16 A3011 RMK A01 T02980159  RH  043%=      5-min Rain = 0
KREE 031558Z 15012KT 30/16 A3011 RMK A01 T03000158  RH  042%=      5-min Rain = 0
KREE 031559Z 14010KT 30/16 A3011 RMK A01 T03000160  RH  043%=      5-min Rain = 0
KREE 031600Z 16010KT 30/16 A3011 RMK A01 T03010160  RH  043%=      5-min Rain = 0
KREE 031601Z 17006KT 30/16 A3011 RMK A01 T03020159  RH  042%=      5-min Rain = 0
KREE 031602Z 17007KT 30/16 A3011 RMK A01 T03010160  RH  043%=      5-min Rain = 0
KREE 031603Z 14012KT 30/16 A3011 RMK A01 T03000160  RH  043%=      5-min Rain = 0
KREE 031604Z 13011KT 30/16 A3012 RMK A01 T03010159  RH  042%=      5-min Rain = 0
KREE 031605Z 14010KT 30/16 A3012 RMK A01 T03020158  RH  042%=      5-min Rain = 0
KREE 031606Z 15010KT 30/16 A3012 RMK A01 T03030159  RH  042%=      5-min Rain = 0
KREE 031607Z 14010KT 31/16 A3012 RMK A01 T03050159  RH  041%=      5-min Rain = 0
KREE 031608Z 15011KT 31/16 A3012 RMK A01 T03060160  RH  042%=      5-min Rain = 0
KREE 031609Z 15011KT 31/16 A3011 RMK A01 T03070160  RH  041%=      5-min Rain = 0
KREE 031610Z 16012KT 31/16 A3011 RMK A01 T03080160  RH  041%=      5-min Rain = 0
KREE 031611Z 15010G15KT 31/16 A3011 RMK A01 T03070161  RH  041%=      5-min Rain = 0
KREE 031612Z 16011KT 31/16 A3012 RMK A01 T03060160  RH  041%=      5-min Rain = 0
KREE 031613Z 16011KT 31/16 A3011 RMK A01 T03060159  RH  041%=      5-min Rain = 0
KREE 031614Z 16006KT 30/16 A3012 RMK A01 T03030158  RH  041%=      5-min Rain = 0
KREE 031615Z 13010KT 30/16 A3012 RMK A01 T03010159  RH  042%=      5-min Rain = 0
KREE 031616Z 14011KT 30/16 A3011 RMK A01 T03030158  RH  042%=      5-min Rain = 0
KREE 031617Z 16012KT 30/16 A3011 RMK A01 T03040159  RH  042%=      5-min Rain = 0
KREE 031618Z 15012KT 31/16 A3011 RMK A01 T03060160  RH  041%=      5-min Rain = 0
KREE 031619Z 14012KT 31/16 A3012 RMK A01 T03070160  RH  041%=      5-min Rain = 0
KREE 031620Z 14011KT 31/16 A3012 RMK A01 T03080160  RH  041%=      5-min Rain = 0
KREE 031621Z 13009KT 31/16 A3012 RMK A01 T03080160  RH  041%=      5-min Rain = 0
KREE 031622Z 16011KT 31/16 A3011 RMK A01 T03090159  RH  041%=      5-min Rain = 0
KREE 031623Z 17012KT 31/16 A3011 RMK A01 T03080160  RH  041%=      5-min Rain = 0
KREE 031624Z 17011KT 31/16 A3012 RMK A01 T03080159  RH  041%=      5-min Rain = 0
KREE 031625Z 15010KT 31/16 A3012 RMK A01 T03070159  RH  041%=      5-min Rain = 0
KREE 031626Z 16009KT 31/16 A3012 RMK A01 T03060159  RH  041%=      5-min Rain = 0
KREE 031627Z 16011KT 31/16 A3011 RMK A01 T03060160  RH  042%=      5-min Rain = 0
KREE 031628Z 16011KT 31/16 A3012 RMK A01 T03070159  RH  041%=      5-min Rain = 0
KREE 031629Z 16008KT 31/16 A3012 RMK A01 T03060160  RH  041%=      5-min Rain = 0
KREE 031630Z 15009KT 31/16 A3012 RMK A01 T03050160  RH  042%=      5-min Rain = 0
KREE 031631Z 16011KT 31/16 A3012 RMK A01 T03070160  RH  041%=      5-min Rain = 0
KREE 031632Z 13010KT 31/16 A3012 RMK A01 T03080159  RH  041%=      5-min Rain = 0
KREE 031633Z 17011KT 31/16 A3012 RMK A01 T03080160  RH  041%=      5-min Rain = 0
KREE 031634Z 17012KT 31/16 A3012 RMK A01 T03100159  RH  040%=      5-min Rain = 0
KREE 031635Z 17009KT 31/16 A3012 RMK A01 T03100159  RH  040%=      5-min Rain = 0
KREE 031636Z 17008G13KT 31/16 A3012 RMK A01 T03110158  RH  040%=      5-min Rain = 0
KREE 031637Z 16008KT 31/16 A3012 RMK A01 T03110159  RH  040%=      5-min Rain = 0
KREE 031638Z 16008KT 31/16 A3012 RMK A01 T03100157  RH  040%=      5-min Rain = 0
KREE 031639Z 17006KT 31/16 A3012 RMK A01 T03090158  RH  040%=      5-min Rain = 0
KREE 031640Z 14009KT 31/16 A3012 RMK A01 T03090159  RH  040%=      5-min Rain = 0
KREE 031641Z 17008KT 31/16 A3012 RMK A01 T03110160  RH  040%=      5-min Rain = 0
KREE 031642Z 18009KT 31/16 A3012 RMK A01 T03130158  RH  039%=      5-min Rain = 0
KREE 031643Z 18008G13KT 31/16 A3012 RMK A01 T03120158  RH  040%=      5-min Rain = 0
KREE 031644Z 16011KT 31/16 A3012 RMK A01 T03100159  RH  040%=      5-min Rain = 0
KREE 031645Z 15012KT 31/16 A3012 RMK A01 T03090159  RH  040%=      5-min Rain = 0
KREE 031646Z 14010KT 31/16 A3012 RMK A01 T03090156  RH  040%=      5-min Rain = 0
KREE 031647Z 14009KT 31/15 A3012 RMK A01 T03100153  RH  039%=      5-min Rain = 0
KREE 031648Z 13010KT 31/16 A3012 RMK A01 T03100156  RH  039%=      5-min Rain = 0
KREE 031649Z 13011KT 31/16 A3012 RMK A01 T03110155  RH  039%=      5-min Rain = 0
KREE 031650Z 14010KT 31/16 A3012 RMK A01 T03110156  RH  039%=      5-min Rain = 0
KREE 031651Z 12008KT 31/16 A3012 RMK A01 T03100158  RH  040%=      5-min Rain = 0
KREE 031652Z 14006KT 31/16 A3012 RMK A01 T03090158  RH  040%=      5-min Rain = 0
KREE 031653Z 18008KT 31/15 A3012 RMK A01 T03080154  RH  039%=      5-min Rain = 0
KREE 031654Z 16010KT 31/15 A3012 RMK A01 T03090151  RH  038%=      5-min Rain = 0
KREE 031655Z 17007KT 31/15 A3012 RMK A01 T03090150  RH  038%=      5-min Rain = 0
KREE 031656Z 19008KT 31/15 A3012 RMK A01 T03090152  RH  039%=      5-min Rain = 0
KREE 031657Z 20008KT 31/16 A3012 RMK A01 T03100157  RH  039%=      5-min Rain = 0
KREE 031658Z 14012G20KT 31/16 A3012 RMK A01 T03120157  RH  039%=      5-min Rain = 0
KREE 031659Z 14011KT 32/16 A3012 RMK A01 T03150157  RH  038%=      5-min Rain = 0
KREE 031700Z 15013KT 32/16 A3012 RMK A01 T03170159  RH  039%=      5-min Rain = 0
KREE 031701Z 16014KT 32/16 A3012 RMK A01 T03190158  RH  038%=      5-min Rain = 0
KREE 031702Z 17009KT 32/16 A3012 RMK A01 T03170157  RH  038%=      5-min Rain = 0
KREE 031703Z 17010KT 31/16 A3012 RMK A01 T03140156  RH  039%=      5-min Rain = 0
KREE 031704Z 17009KT 32/15 A3012 RMK A01 T03150154  RH  038%=      5-min Rain = 0
KREE 031705Z 14008KT 32/16 A3012 RMK A01 T03160155  RH  038%=      5-min Rain = 0
KREE 031706Z 13010KT 32/15 A3012 RMK A01 T03170154  RH  037%=      5-min Rain = 0
KREE 031707Z 14011KT 32/15 A3012 RMK A01 T03170152  RH  037%=      5-min Rain = 0
KREE 031708Z 13011KT 32/15 A3012 RMK A01 T03180151  RH  036%=      5-min Rain = 0
KREE 031709Z 12009KT 32/15 A3012 RMK A01 T03190150  RH  036%=      5-min Rain = 0
KREE 031710Z 14012KT 32/15 A3012 RMK A01 T03220150  RH  035%=      5-min Rain = 0
KREE 031711Z 13010KT 32/15 A3012 RMK A01 T03240147  RH  034%=      5-min Rain = 0
KREE 031712Z 11007KT 32/15 A3012 RMK A01 T03200146  RH  035%=      5-min Rain = 0
KREE 031713Z 12008KT 32/15 A3012 RMK A01 T03150146  RH  036%=      5-min Rain = 0
KREE 031714Z 12006KT 31/15 A3012 RMK A01 T03130145  RH  036%=      5-min Rain = 0
KREE 031715Z 12007KT 31/15 A3012 RMK A01 T03120146  RH  037%=      5-min Rain = 0
KREE 031716Z 12008KT 31/15 A3012 RMK A01 T03110149  RH  037%=      5-min Rain = 0
KREE 031717Z 10006KT 31/15 A3012 RMK A01 T03110148  RH  037%=      5-min Rain = 0
KREE 031718Z 13008G14KT 31/15 A3012 RMK A01 T03130151  RH  037%=      5-min Rain = 0
KREE 031719Z 13010KT 32/15 A3012 RMK A01 T03170154  RH  037%=      5-min Rain = 0
KREE 031720Z 12012KT 32/15 A3012 RMK A01 T03200152  RH  036%=      5-min Rain = 0
KREE 031721Z 14012KT 32/15 A3012 RMK A01 T03240150  RH  035%=      5-min Rain = 0
KREE 031722Z 13007KT 32/15 A3012 RMK A01 T03240145  RH  034%=      5-min Rain = 0
KREE 031723Z 13006KT 32/15 A3012 RMK A01 T03190146  RH  035%=      5-min Rain = 0
KREE 031724Z 18006G12KT 32/15 A3012 RMK A01 T03180148  RH  036%=      5-min Rain = 0
KREE 031725Z 16013KT 32/15 A3012 RMK A01 T03200150  RH  036%=      5-min Rain = 0
KREE 031726Z 15009KT 32/15 A3012 RMK A01 T03220152  RH  036%=      5-min Rain = 0
KREE 031727Z 16009KT 32/16 A3012 RMK A01 T03190155  RH  037%=      5-min Rain = 0
KREE 031728Z 18006KT 32/16 A3012 RMK A01 T03180155  RH  037%=      5-min Rain = 0
KREE 031729Z 17005KT 32/16 A3012 RMK A01 T03180157  RH  038%=      5-min Rain = 0
KREE 031730Z 19002KT 32/16 A3012 RMK A01 T03210155  RH  037%=      5-min Rain = 0
KREE 031731Z 21005KT 32/15 A3012 RMK A01 T03210153  RH  036%=      5-min Rain = 0
KREE 031732Z 19005KT 32/15 A3012 RMK A01 T03200152  RH  036%=      5-min Rain = 0
KREE 031733Z 15010G15KT 32/15 A3012 RMK A01 T03210153  RH  036%=      5-min Rain = 0
KREE 031734Z 13013G18KT 33/15 A3012 RMK A01 T03270149  RH  034%=      5-min Rain = 0
KREE 031735Z 13011KT 33/15 A3012 RMK A01 T03300152  RH  034%=      5-min Rain = 0
KREE 031736Z 12010KT 33/15 A3012 RMK A01 T03300148  RH  033%=      5-min Rain = 0
KREE 031737Z 11010G15KT 33/15 A3012 RMK A01 T03260149  RH  034%=      5-min Rain = 0
KREE 031738Z 11008KT 33/15 A3012 RMK A01 T03260148  RH  034%=      5-min Rain = 0
KREE 031739Z 11010KT 32/15 A3012 RMK A01 T03240146  RH  034%=      5-min Rain = 0
KREE 031740Z 09006KT 32/15 A3012 RMK A01 T03220146  RH  035%=      5-min Rain = 0
KREE 031741Z 09006KT 32/14 A3012 RMK A01 T03190143  RH  034%=      5-min Rain = 0
KREE 031742Z 11007KT 32/15 A3011 RMK A01 T03200145  RH  035%=      5-min Rain = 0
KREE 031743Z 14012G17KT 33/15 A3012 RMK A01 T03260148  RH  034%=      5-min Rain = 0
KREE 031744Z 14013KT 33/15 A3011 RMK A01 T03290146  RH  033%=      5-min Rain = 0
KREE 031745Z 13012KT 33/14 A3011 RMK A01 T03290142  RH  032%=      5-min Rain = 0
KREE 031746Z 13012KT 33/14 A3012 RMK A01 T03280138  RH  032%=      5-min Rain = 0
KREE 031747Z 13007KT 33/14 A3012 RMK A01 T03260138  RH  032%=      5-min Rain = 0
KREE 031748Z 13009KT 32/14 A3012 RMK A01 T03240137  RH  032%=      5-min Rain = 0
KREE 031749Z 14008KT 32/13 A3011 RMK A01 T03240131  RH  031%=      5-min Rain = 0
KREE 031750Z 15007KT 32/14 A3011 RMK A01 T03240136  RH  032%=      5-min Rain = 0
KREE 031751Z 17008KT 32/14 A3011 RMK A01 T03240140  RH  033%=      5-min Rain = 0
KREE 031752Z 19007KT 32/14 A3011 RMK A01 T03230140  RH  033%=      5-min Rain = 0
KREE 031753Z 17008KT 32/14 A3011 RMK A01 T03210140  RH  033%=      5-min Rain = 0
KREE 031754Z 16009KT 32/14 A3011 RMK A01 T03220138  RH  033%=      5-min Rain = 0
KREE 031755Z 16008KT 32/15 A3011 RMK A01 T03220146  RH  034%=      5-min Rain = 0
KREE 031756Z 16009KT 32/15 A3011 RMK A01 T03220148  RH  035%=      5-min Rain = 0
KREE 031757Z 17009KT 32/15 A3011 RMK A01 T03240146  RH  034%=      5-min Rain = 0
KREE 031758Z 19011KT 33/14 A3011 RMK A01 T03250143  RH  033%=      5-min Rain = 0
KREE 031759Z 17009KT 33/15 A3011 RMK A01 T03260145  RH  034%=      5-min Rain = 0
KREE 031800Z 12014KT 33/14 A3011 RMK A01 T03270140  RH  032%=      5-min Rain = 0
KREE 031801Z 12011KT 33/13 A3011 RMK A01 T03310134  RH  030%=      5-min Rain = 0
KREE 031802Z 14009KT 33/14 A3011 RMK A01 T03300135  RH  031%=      5-min Rain = 0
KREE 031803Z 15011G16KT 33/14 A3011 RMK A01 T03310137  RH  031%=      5-min Rain = 0
KREE 031804Z 14013KT 33/14 A3011 RMK A01 T03340137  RH  030%=      5-min Rain = 0
KREE 031805Z 14013KT 33/14 A3011 RMK A01 T03330140  RH  031%=      5-min Rain = 0
KREE 031806Z 15011KT 33/14 A3011 RMK A01 T03310141  RH  032%=      5-min Rain = 0
KREE 031807Z 15012KT 33/15 A3011 RMK A01 T03290147  RH  033%=      5-min Rain = 0
KREE 031808Z 15012KT 33/15 A3011 RMK A01 T03310146  RH  033%=      5-min Rain = 0
KREE 031809Z 14011KT 33/14 A3011 RMK A01 T03340143  RH  032%=      5-min Rain = 0
KREE 031810Z 15009KT 33/14 A3011 RMK A01 T03340142  RH  031%=      5-min Rain = 0
KREE 031811Z 16011KT 33/14 A3011 RMK A01 T03330141  RH  032%=      5-min Rain = 0
KREE 031812Z 15008KT 33/14 A3011 RMK A01 T03310143  RH  032%=      5-min Rain = 0
KREE 031813Z 15005KT 33/14 A3011 RMK A01 T03310136  RH  031%=      5-min Rain = 0
KREE 031814Z 13004KT 33/14 A3011 RMK A01 T03290136  RH  031%=      5-min Rain = 0
KREE 031815Z 15006G13KT 33/14 A3011 RMK A01 T03270139  RH  032%=      5-min Rain = 0
KREE 031816Z 13010KT 33/14 A3011 RMK A01 T03300139  RH  032%=      5-min Rain = 0
KREE 031817Z 13008KT 33/14 A3011 RMK A01 T03310140  RH  032%=      5-min Rain = 0
KREE 031818Z 14009G19KT 33/14 A301 RMK A01 T03310141  RH  032%=      5-min Rain = 0
KREE 031819Z 14017G22KT 33/15 A3011 RMK A01 T03340145  RH  032%=      5-min Rain = 0
KREE 031820Z 14015KT 34/14 A3011 RMK A01 T03360140  RH  031%=      5-min Rain = 0
KREE 031821Z 15012KT 34/14 A301 RMK A01 T03360142  RH  031%=      5-min Rain = 0
KREE 031822Z 15011KT 34/14 A301 RMK A01 T03350139  RH  031%=      5-min Rain = 0
KREE 031823Z 15007KT 33/14 A301 RMK A01 T03290141  RH  032%=      5-min Rain = 0
KREE 031824Z 15014KT 33/14 A301 RMK A01 T03300144  RH  032%=      5-min Rain = 0
KREE 031825Z 13015KT 34/14 A301 RMK A01 T03360142  RH  031%=      5-min Rain = 0
KREE 031826Z 12010KT 34/14 A301 RMK A01 T03380143  RH  031%=      5-min Rain = 0
KREE 031827Z 13011KT 34/14 A301 RMK A01 T03370143  RH  031%=      5-min Rain = 0
KREE 031828Z 13007KT 33/14 A301 RMK A01 T03330142  RH  031%=      5-min Rain = 0
KREE 031829Z 13010G17KT 33/14 A301 RMK A01 T03310143  RH  032%=      5-min Rain = 0
KREE 031830Z 14016KT 34/14 A301 RMK A01 T03360139  RH  031%=      5-min Rain = 0
KREE 031831Z 14014KT 34/14 A301 RMK A01 T03380135  RH  029%=      5-min Rain = 0
KREE 031832Z 12011G17KT 34/13 A301 RMK A01 T03350129  RH  029%=      5-min Rain = 0
KREE 031833Z 14012G18KT 33/13 A301 RMK A01 T03330132  RH  030%=      5-min Rain = 0
KREE 031834Z 14013KT 33/13 A301 RMK A01 T03340134  RH  030%=      5-min Rain = 0
KREE 031835Z 14010KT 34/13 A301 RMK A01 T03360134  RH  029%=      5-min Rain = 0
KREE 031836Z 14012KT 34/14 A301 RMK A01 T03350139  RH  031%=      5-min Rain = 0
KREE 031837Z 15009KT 33/14 A301 RMK A01 T03330139  RH  031%=      5-min Rain = 0
KREE 031838Z 14010KT 33/14 A301 RMK A01 T03310139  RH  031%=      5-min Rain = 0
KREE 031839Z 14009KT 33/13 A301 RMK A01 T03330128  RH  029%=      5-min Rain = 0
KREE 031840Z 14011G16KT 33/13 A301 RMK A01 T03330126  RH  028%=      5-min Rain = 0
KREE 031841Z 15013G18KT 34/13 A301 RMK A01 T03350131  RH  029%=      5-min Rain = 0
KREE 031842Z 17015KT 34/13 A3009 RMK A01 T03380129  RH  028%=      5-min Rain = 0
KREE 031843Z 17013KT 34/13 A3009 RMK A01 T03380130  RH  029%=      5-min Rain = 0
KREE 031844Z 18012KT 34/14 A3009 RMK A01 T03350135  RH  030%=      5-min Rain = 0
KREE 031845Z 19010KT 34/13 A3009 RMK A01 T03370134  RH  029%=      5-min Rain = 0
KREE 031846Z 16009KT 33/14 A3009 RMK A01 T03330138  RH  031%=      5-min Rain = 0
KREE 031847Z 14010KT 34/14 A3009 RMK A01 T03360140  RH  031%=      5-min Rain = 0
KREE 031848Z 14008KT 34/14 A3009 RMK A01 T03370141  RH  031%=      5-min Rain = 0
KREE 031849Z 12009KT 34/14 A3009 RMK A01 T03350144  RH  032%=      5-min Rain = 0
KREE 031850Z 11008KT 33/14 A3009 RMK A01 T03340139  RH  031%=      5-min Rain = 0
KREE 031851Z 11009KT 33/14 A3009 RMK A01 T03340139  RH  031%=      5-min Rain = 0
KREE 031852Z 13010G16KT 33/14 A3009 RMK A01 T03310137  RH  031%=      5-min Rain = 0
KREE 031853Z 14011KT 33/13 A3009 RMK A01 T03330126  RH  029%=      5-min Rain = 0
KREE 031854Z 15014KT 33/13 A3009 RMK A01 T03340127  RH  029%=      5-min Rain = 0
KREE 031855Z 15010KT 33/13 A3009 RMK A01 T03340129  RH  029%=      5-min Rain = 0
KREE 031856Z 13015G21KT 34/14 A3009 RMK A01 T03350135  RH  030%=      5-min Rain = 0
KREE 031857Z 13016G21KT 34/14 A3009 RMK A01 T03400136  RH  029%=      5-min Rain = 0
KREE 031858Z 12016KT 34/13 A3009 RMK A01 T03410134  RH  029%=      5-min Rain = 0
KREE 031859Z 12014G20KT 34/13 A3009 RMK A01 T03400134  RH  029%=      5-min Rain = 0
KREE 031900Z 12010KT 34/13 A3009 RMK A01 T03360132  RH  029%=      5-min Rain = 0
KREE 031901Z 14012G17KT 34/13 A3009 RMK A01 T03350134  RH  030%=      5-min Rain = 0
KREE 031902Z 15010KT 34/13 A3009 RMK A01 T03370133  RH  029%=      5-min Rain = 0
KREE 031903Z 14012G18KT 34/13 A3009 RMK A01 T03370134  RH  029%=      5-min Rain = 0
KREE 031904Z 15016KT 34/14 A3009 RMK A01 T03390136  RH  029%=      5-min Rain = 0
KREE 031905Z 16017KT 34/13 A3009 RMK A01 T03390133  RH  029%=      5-min Rain = 0
KREE 031906Z 16013KT 33/13 A3009 RMK A01 T03340131  RH  029%=      5-min Rain = 0
KREE 031907Z 16006G11KT 33/13 A3009 RMK A01 T03310130  RH  030%=      5-min Rain = 0
KREE 031908Z 16011KT 33/13 A3009 RMK A01 T03290132  RH  030%=      5-min Rain = 0
KREE 031909Z 16013KT 33/13 A3009 RMK A01 T03330129  RH  029%=      5-min Rain = 0
KREE 031910Z 15015KT 34/12 A3009 RMK A01 T03370124  RH  028%=      5-min Rain = 0
KREE 031911Z 14010KT 34/12 A3009 RMK A01 T03370122  RH  027%=      5-min Rain = 0
KREE 031912Z 13011KT 33/13 A3009 RMK A01 T03340125  RH  028%=      5-min Rain = 0
KREE 031913Z 13011KT 34/13 A3009 RMK A01 T03370125  RH  028%=      5-min Rain = 0
KREE 031914Z 14016G23KT 34/13 A3008 RMK A01 T03390126  RH  028%=      5-min Rain = 0
KREE 031915Z 14015G22KT 35/13 A3009 RMK A01 T03450125  RH  027%=      5-min Rain = 0
KREE 031916Z 14010KT 35/12 A3009 RMK A01 T03450124  RH  026%=      5-min Rain = 0
KREE 031917Z 16008KT 34/12 A3009 RMK A01 T03410123  RH  027%=      5-min Rain = 0
KREE 031918Z 15012KT 34/13 A3008 RMK A01 T03390125  RH  027%=      5-min Rain = 0
KREE 031919Z 15013G18KT 35/13 A3009 RMK A01 T03450126  RH  027%=      5-min Rain = 0
KREE 031920Z 15009KT 35/12 A3008 RMK A01 T03480124  RH  026%=      5-min Rain = 0
KREE 031921Z 13012G19KT 35/12 A3008 RMK A01 T03460124  RH  026%=      5-min Rain = 0
KREE 031922Z 13015KT 35/12 A3008 RMK A01 T03460122  RH  026%=      5-min Rain = 0
KREE 031923Z 13012KT 34/13 A3008 RMK A01 T03430126  RH  027%=      5-min Rain = 0
KREE 031924Z 12016KT 34/12 A3008 RMK A01 T03430123  RH  026%=      5-min Rain = 0
KREE 031925Z 11012KT 34/12 A3008 RMK A01 T03430122  RH  026%=      5-min Rain = 0
KREE 031926Z 12012G18KT 34/12 A3008 RMK A01 T03400120  RH  026%=      5-min Rain = 0
KREE 031927Z 16012KT 34/12 A3008 RMK A01 T03430123  RH  026%=      5-min Rain = 0
KREE 031928Z 16009KT 34/13 A3008 RMK A01 T03420125  RH  027%=      5-min Rain = 0
KREE 031929Z 14009G14KT 34/13 A3008 RMK A01 T03400125  RH  027%=      5-min Rain = 0
KREE 031930Z 14011KT 34/12 A3008 RMK A01 T03410121  RH  026%=      5-min Rain = 0
KREE 031931Z 13009KT 34/12 A3008 RMK A01 T03420118  RH  026%=      5-min Rain = 0
KREE 031932Z 13013G19KT 34/12 A3008 RMK A01 T03430122  RH  026%=      5-min Rain = 0
KREE 031933Z 14015KT 35/13 A3008 RMK A01 T03470125  RH  026%=      5-min Rain = 0
KREE 031934Z 13013KT 35/12 A3008 RMK A01 T03470122  RH  026%=      5-min Rain = 0
KREE 031935Z 13011KT 34/12 A3008 RMK A01 T03440122  RH  026%=      5-min Rain = 0
KREE 031936Z 13012KT 34/12 A3008 RMK A01 T03430123  RH  026%=      5-min Rain = 0
KREE 031937Z 13010KT 35/12 A3008 RMK A01 T03460120  RH  025%=      5-min Rain = 0
KREE 031938Z 12012KT 35/12 A3008 RMK A01 T03510120  RH  025%=      5-min Rain = 0
KREE 031939Z 12015G20KT 35/12 A3008 RMK A01 T03480119  RH  025%=      5-min Rain = 0
KREE 031940Z 15014KT 35/12 A3007 RMK A01 T03460118  RH  025%=      5-min Rain = 0
KREE 031941Z 14015KT 35/12 A3008 RMK A01 T03490116  RH  024%=      5-min Rain = 0
KREE 031942Z 15012G17KT 35/12 A3007 RMK A01 T03500119  RH  025%=      5-min Rain = 0
KREE 031943Z 16013G20KT 35/13 A3007 RMK A01 T03510125  RH  026%=      5-min Rain = 0
KREE 031944Z 17015G20KT 35/13 A3007 RMK A01 T03490125  RH  026%=      5-min Rain = 0
KREE 031945Z 18014G20KT 35/12 A3007 RMK A01 T03470122  RH  026%=      5-min Rain = 0
KREE 031946Z 17010KT 35/12 A3007 RMK A01 T03450120  RH  025%=      5-min Rain = 0
KREE 031947Z 17012KT 34/12 A3007 RMK A01 T03410121  RH  026%=      5-min Rain = 0
KREE 031948Z 16013KT 34/12 A3007 RMK A01 T03420119  RH  026%=      5-min Rain = 0
KREE 031949Z 15010KT 34/12 A3007 RMK A01 T03420117  RH  025%=      5-min Rain = 0
KREE 031950Z 13005KT 34/12 A3007 RMK A01 T03420116  RH  025%=      5-min Rain = 0
KREE 031951Z 14005KT 34/12 A3007 RMK A01 T03420119  RH  026%=      5-min Rain = 0
KREE 031952Z 14006KT 34/12 A3007 RMK A01 T03430119  RH  026%=      5-min Rain = 0
KREE 031953Z 13007KT 34/12 A3007 RMK A01 T03430119  RH  026%=      5-min Rain = 0
KREE 031954Z 13008KT 35/12 A3007 RMK A01 T03460121  RH  026%=      5-min Rain = 0
KREE 031955Z 15009KT 35/12 A3007 RMK A01 T03490123  RH  025%=      5-min Rain = 0
KREE 031956Z 15010G15KT 35/13 A3007 RMK A01 T03530128  RH  026%=      5-min Rain = 0
KREE 031957Z 13015KT 36/13 A3007 RMK A01 T03560129  RH  026%=      5-min Rain = 0
KREE 031958Z 14012KT 35/13 A3007 RMK A01 T03490129  RH  027%=      5-min Rain = 0
KREE 031959Z 15008KT 34/13 A3007 RMK A01 T03440127  RH  027%=      5-min Rain = 0
KREE 032000Z 13003KT 34/13 A3007 RMK A01 T03400127  RH  027%=      5-min Rain = 0
KREE 032001Z 13004KT 34/13 A3007 RMK A01 T03380130  RH  028%=      5-min Rain = 0
KREE 032002Z 15006KT 34/13 A3007 RMK A01 T03370129  RH  028%=      5-min Rain = 0
KREE 032003Z 17010G16KT 34/13 A3007 RMK A01 T03370130  RH  028%=      5-min Rain = 0
KREE 032004Z 17013KT 34/13 A3006 RMK A01 T03440127  RH  027%=      5-min Rain = 0
KREE 032005Z 17011KT 34/13 A3007 RMK A01 T03440125  RH  027%=      5-min Rain = 0
KREE 032006Z 16009KT 34/13 A3007 RMK A01 T03420125  RH  027%=      5-min Rain = 0
KREE 032007Z 16005KT 34/12 A3007 RMK A01 T03420124  RH  027%=      5-min Rain = 0
KREE 032008Z 18009KT 34/13 A3006 RMK A01 T03410126  RH  027%=      5-min Rain = 0
KREE 032009Z 18007G12KT 35/13 A3006 RMK A01 T03450126  RH  027%=      5-min Rain = 0
KREE 032010Z 20008KT 35/12 A3006 RMK A01 T03490124  RH  026%=      5-min Rain = 0
KREE 032011Z 21006KT 35/12 A3006 RMK A01 T03450120  RH  026%=      5-min Rain = 0
KREE 032012Z 15009G16KT 34/12 A3006 RMK A01 T03420123  RH  027%=      5-min Rain = 0
KREE 032013Z 16012KT 35/12 A3006 RMK A01 T03480121  RH  025%=      5-min Rain = 0
KREE 032014Z 20010G16KT 35/12 A3006 RMK A01 T03470119  RH  025%=      5-min Rain = 0
KREE 032015Z 16009G19KT 34/12 A3006 RMK A01 T03430120  RH  026%=      5-min Rain = 0
KREE 032016Z 15015G20KT 35/12 A3006 RMK A01 T03460118  RH  025%=      5-min Rain = 0
KREE 032017Z 14011KT 35/12 A3006 RMK A01 T03470119  RH  025%=      5-min Rain = 0
KREE 032018Z 15012KT 35/12 A3006 RMK A01 T03480118  RH  025%=      5-min Rain = 0
KREE 032019Z 17006KT 35/12 A3006 RMK A01 T03460118  RH  025%=      5-min Rain = 0
KREE 032020Z 14004KT 34/12 A3006 RMK A01 T03440120  RH  026%=      5-min Rain = 0
KREE 032021Z 13008KT 34/12 A3006 RMK A01 T03430119  RH  026%=      5-min Rain = 0
KREE 032022Z 16008KT 35/12 A3006 RMK A01 T03450119  RH  025%=      5-min Rain = 0
KREE 032023Z 18008KT 35/12 A3006 RMK A01 T03470118  RH  025%=      5-min Rain = 0
KREE 032024Z 18010G15KT 35/12 A3006 RMK A01 T03470119  RH  025%=      5-min Rain = 0
KREE 032025Z 17011KT 35/12 A3006 RMK A01 T03480119  RH  025%=      5-min Rain = 0
KREE 032026Z 15013G19KT 35/12 A3006 RMK A01 T03480120  RH  025%=      5-min Rain = 0
KREE 032027Z 13013KT 35/12 A3006 RMK A01 T03530121  RH  025%=      5-min Rain = 0
KREE 032028Z 13011KT 35/12 A3006 RMK A01 T03520120  RH  025%=      5-min Rain = 0
KREE 032029Z 13010KT 35/12 A3006 RMK A01 T03510120  RH  025%=      5-min Rain = 0
KREE 032030Z 13011G24KT 35/12 A3006 RMK A01 T03480120  RH  025%=      5-min Rain = 0
KREE 032031Z 17012KT 35/12 A3006 RMK A01 T03510120  RH  025%=      5-min Rain = 0
KREE 032032Z 16009G15KT 35/12 A3006 RMK A01 T03530121  RH  025%=      5-min Rain = 0
KREE 032033Z 15012KT 35/12 A3006 RMK A01 T03540120  RH  024%=      5-min Rain = 0
KREE 032034Z 15013G19KT 36/12 A3006 RMK A01 T03550120  RH  024%=      5-min Rain = 0
KREE 032035Z 14014G20KT 35/12 A3006 RMK A01 T03540118  RH  024%=      5-min Rain = 0
KREE 032036Z 13012KT 35/12 A3006 RMK A01 T03490118  RH  025%=      5-min Rain = 0
KREE 032037Z 15013KT 35/12 A3006 RMK A01 T03480118  RH  025%=      5-min Rain = 0
KREE 032038Z 13011KT 35/12 A3006 RMK A01 T03490118  RH  025%=      5-min Rain = 0
KREE 032039Z 14012KT 35/12 A3006 RMK A01 T03490119  RH  025%=      5-min Rain = 0
KREE 032040Z 15012G18KT 35/12 A3006 RMK A01 T03490118  RH  025%=      5-min Rain = 0
KREE 032041Z 14017KT 35/12 A3006 RMK A01 T03480119  RH  025%=      5-min Rain = 0
KREE 032042Z 13013KT 35/12 A3006 RMK A01 T03490118  RH  025%=      5-min Rain = 0
KREE 032043Z 12013KT 35/12 A3006 RMK A01 T03500118  RH  025%=      5-min Rain = 0
KREE 032044Z 12012KT 35/12 A3006 RMK A01 T03510119  RH  025%=      5-min Rain = 0
KREE 032045Z 12009KT 35/12 A3006 RMK A01 T03490118  RH  025%=      5-min Rain = 0
KREE 032046Z 12010KT 35/12 A3006 RMK A01 T03470119  RH  025%=      5-min Rain = 0
KREE 032047Z 11006KT 35/12 A3006 RMK A01 T03450120  RH  026%=      5-min Rain = 0
KREE 032048Z 11005KT 35/12 A3006 RMK A01 T03450118  RH  025%=      5-min Rain = 0
KREE 032049Z 10008KT 34/12 A3006 RMK A01 T03430119  RH  026%=      5-min Rain = 0
KREE 032050Z 14012G17KT 35/12 A3006 RMK A01 T03450119  RH  026%=      5-min Rain = 0
KREE 032051Z 16011KT 35/12 A3006 RMK A01 T03490118  RH  025%=      5-min Rain = 0
KREE 032052Z 16011KT 35/12 A3006 RMK A01 T03500118  RH  025%=      5-min Rain = 0
KREE 032053Z 15008KT 35/12 A3006 RMK A01 T03490118  RH  025%=      5-min Rain = 0
KREE 032054Z 15010G16KT 35/12 A3006 RMK A01 T03490116  RH  024%=      5-min Rain = 0
KREE 032055Z 13010KT 35/12 A3006 RMK A01 T03470117  RH  025%=      5-min Rain = 0
KREE 032056Z 14012G18KT 35/12 A3006 RMK A01 T03480117  RH  025%=      5-min Rain = 0
KREE 032057Z 12012KT 35/12 A3006 RMK A01 T03510117  RH  024%=      5-min Rain = 0
KREE 032058Z 12009KT 35/12 A3006 RMK A01 T03510116  RH  024%=      5-min Rain = 0
KREE 032059Z 13006KT 35/12 A3005 RMK A01 T03480117  RH  025%=      5-min Rain = 0
KREE 032100Z 15008KT 35/12 A3005 RMK A01 T03490117  RH  025%=      5-min Rain = 0
KREE 032101Z 15005KT 35/12 A3005 RMK A01 T03490115  RH  024%=      5-min Rain = 0
KREE 032102Z 14009G16KT 35/12 A3005 RMK A01 T03470116  RH  025%=      5-min Rain = 0
KREE 032103Z 12014KT 35/12 A3006 RMK A01 T03490117  RH  025%=      5-min Rain = 0
KREE 032104Z 10008KT 35/12 A3006 RMK A01 T03490118  RH  025%=      5-min Rain = 0
KREE 032105Z 12009G16KT 35/12 A3006 RMK A01 T03470119  RH  025%=      5-min Rain = 0
KREE 032106Z 15011KT 35/12 A3005 RMK A01 T03500118  RH  025%=      5-min Rain = 0
KREE 032107Z 16007KT 35/12 A3005 RMK A01 T03520117  RH  024%=      5-min Rain = 0
KREE 032108Z 15007G13KT 35/12 A3005 RMK A01 T03520117  RH  024%=      5-min Rain = 0
KREE 032109Z 15011KT 35/12 A3005 RMK A01 T03510117  RH  024%=      5-min Rain = 0
KREE 032110Z 17008KT 35/12 A3005 RMK A01 T03500116  RH  024%=      5-min Rain = 0
KREE 032111Z 14007KT 35/12 A3005 RMK A01 T03500118  RH  025%=      5-min Rain = 0
KREE 032112Z 16009G14KT 35/12 A3005 RMK A01 T03520119  RH  024%=      5-min Rain = 0
KREE 032113Z 17006KT 35/12 A3005 RMK A01 T03520119  RH  024%=      5-min Rain = 0
KREE 032114Z 18008G13KT 35/12 A3005 RMK A01 T03490119  RH  025%=      5-min Rain = 0
KREE 032115Z 17010KT 35/13 A3005 RMK A01 T03520125  RH  025%=      5-min Rain = 0
KREE 032116Z 15011G17KT 35/12 A3005 RMK A01 T03540124  RH  025%=      5-min Rain = 0
KREE 032117Z 12013KT 35/12 A3005 RMK A01 T03530124  RH  025%=      5-min Rain = 0
KREE 032118Z 13011KT 35/13 A3005 RMK A01 T03530125  RH  025%=      5-min Rain = 0
KREE 032119Z 15012KT 36/13 A3005 RMK A01 T03570125  RH  025%=      5-min Rain = 0
KREE 032120Z 17014KT 36/12 A3005 RMK A01 T03580123  RH  024%=      5-min Rain = 0
KREE 032121Z 17012KT 36/12 A3005 RMK A01 T03550122  RH  025%=      5-min Rain = 0
KREE 032122Z 18008KT 35/12 A3005 RMK A01 T03540122  RH  025%=      5-min Rain = 0
KREE 032123Z 16008KT 35/12 A3005 RMK A01 T03520123  RH  025%=      5-min Rain = 0
KREE 032124Z 14011KT 35/12 A3005 RMK A01 T03540124  RH  025%=      5-min Rain = 0
KREE 032125Z 14009KT 36/13 A3005 RMK A01 T03550125  RH  025%=      5-min Rain = 0
KREE 032126Z 14010KT 35/13 A3005 RMK A01 T03540127  RH  026%=      5-min Rain = 0
KREE 032127Z 14012G17KT 36/13 A3005 RMK A01 T03560125  RH  025%=      5-min Rain = 0
KREE 032128Z 15014G19KT 36/13 A3005 RMK A01 T03570126  RH  025%=      5-min Rain = 0
KREE 032129Z 17015G20KT 36/12 A3005 RMK A01 T03570122  RH  024%=      5-min Rain = 0
KREE 032130Z 16013KT 35/12 A3005 RMK A01 T03540122  RH  025%=      5-min Rain = 0
KREE 032131Z 16010KT 35/12 A3005 RMK A01 T03520121  RH  025%=      5-min Rain = 0
KREE 032132Z 17013G18KT 35/12 A3005 RMK A01 T03510121  RH  025%=      5-min Rain = 0
KREE 032133Z 19011KT 35/12 A3005 RMK A01 T03510121  RH  025%=      5-min Rain = 0
KREE 032134Z 19010KT 35/12 A3005 RMK A01 T03490121  RH  025%=      5-min Rain = 0
KREE 032135Z 19010KT 35/12 A3005 RMK A01 T03500121  RH  025%=      5-min Rain = 0
KREE 032136Z 20008KT 35/12 A3005 RMK A01 T03520120  RH  025%=      5-min Rain = 0
KREE 032137Z 19005KT 35/12 A3005 RMK A01 T03500121  RH  025%=      5-min Rain = 0
KREE 032138Z 16012G18KT 35/12 A3005 RMK A01 T03510123  RH  025%=      5-min Rain = 0
KREE 032139Z 14014G19KT 36/13 A3005 RMK A01 T03570125  RH  025%=      5-min Rain = 0
KREE 032140Z 16012KT 36/13 A3005 RMK A01 T03600126  RH  024%=      5-min Rain = 0
KREE 032141Z 15011KT 36/13 A3005 RMK A01 T03590125  RH  024%=      5-min Rain = 0
KREE 032142Z 14009KT 36/12 A3005 RMK A01 T03570124  RH  025%=      5-min Rain = 0
KREE 032143Z 15007G12KT 35/13 A3005 RMK A01 T03510125  RH  026%=      5-min Rain = 0
KREE 032144Z 15009KT 35/13 A3005 RMK A01 T03510125  RH  026%=      5-min Rain = 0
KREE 032145Z 16015KT 35/13 A3005 RMK A01 T03520127  RH  026%=      5-min Rain = 0
KREE 032146Z 17014KT 36/13 A3005 RMK A01 T03550126  RH  025%=      5-min Rain = 0
KREE 032147Z 17009G15KT 35/13 A3005 RMK A01 T03510125  RH  026%=      5-min Rain = 0
KREE 032148Z 16011KT 35/13 A3005 RMK A01 T03470126  RH  026%=      5-min Rain = 0
KREE 032149Z 15008KT 35/13 A3005 RMK A01 T03470125  RH  026%=      5-min Rain = 0
KREE 032150Z 16006KT 35/13 A3005 RMK A01 T03480125  RH  026%=      5-min Rain = 0
KREE 032151Z 13006KT 35/13 A3005 RMK A01 T03480127  RH  026%=      5-min Rain = 0
KREE 032152Z 14005G10KT 35/13 A3005 RMK A01 T03480126  RH  026%=      5-min Rain = 0
KREE 032153Z 13009KT 35/13 A3005 RMK A01 T03470127  RH  027%=      5-min Rain = 0
KREE 032154Z 12009KT 35/13 A3005 RMK A01 T03490126  RH  026%=      5-min Rain = 0
KREE 032155Z 10012G17KT 35/13 A3005 RMK A01 T03510127  RH  026%=      5-min Rain = 0
KREE 032156Z 12013KT 35/13 A3005 RMK A01 T03530125  RH  025%=      5-min Rain = 0
KREE 032157Z 12011KT 35/13 A3005 RMK A01 T03500125  RH  026%=      5-min Rain = 0
KREE 032158Z 14009KT 35/12 A3005 RMK A01 T03520124  RH  025%=      5-min Rain = 0
KREE 032159Z 15011KT 35/12 A3005 RMK A01 T03510122  RH  025%=      5-min Rain = 0
KREE 032200Z 17010KT 35/12 A3005 RMK A01 T03510121  RH  025%=      5-min Rain = 0
KREE 032201Z 17010KT 35/12 A3005 RMK A01 T03510120  RH  025%=      5-min Rain = 0
KREE 032202Z 16012KT 35/12 A3005 RMK A01 T03500120  RH  025%=      5-min Rain = 0
KREE 032203Z 16010KT 35/12 A3005 RMK A01 T03500119  RH  025%=      5-min Rain = 0
KREE 032204Z 12006KT 35/12 A3005 RMK A01 T03490121  RH  025%=      5-min Rain = 0
KREE 032205Z 14006KT 35/12 A3005 RMK A01 T03480121  RH  025%=      5-min Rain = 0
KREE 032206Z 18007KT 35/12 A3005 RMK A01 T03490119  RH  025%=      5-min Rain = 0
KREE 032207Z 16006KT 35/12 A3005 RMK A01 T03490121  RH  025%=      5-min Rain = 0
KREE 032208Z 15006KT 35/12 A3004 RMK A01 T03510120  RH  025%=      5-min Rain = 0
KREE 032209Z 14008G14KT 35/12 A3004 RMK A01 T03510123  RH  025%=      5-min Rain = 0
KREE 032210Z 13009G14KT 35/13 A3004 RMK A01 T03510127  RH  026%=      5-min Rain = 0
KREE 032211Z 13009G17KT 35/13 A3004 RMK A01 T03510128  RH  026%=      5-min Rain = 0
KREE 032212Z 11013KT 35/13 A3004 RMK A01 T03500127  RH  026%=      5-min Rain = 0
KREE 032213Z 12013KT 35/13 A3004 RMK A01 T03510127  RH  026%=      5-min Rain = 0
KREE 032214Z 13012KT 35/13 A3004 RMK A01 T03500126  RH  026%=      5-min Rain = 0
KREE 032215Z 14014KT 35/13 A3004 RMK A01 T03490127  RH  026%=      5-min Rain = 0
KREE 032216Z 14014KT 35/13 A3004 RMK A01 T03480126  RH  026%=      5-min Rain = 0
KREE 032217Z 13014KT 35/13 A3004 RMK A01 T03460127  RH  027%=      5-min Rain = 0
KREE 032218Z 14013KT 35/13 A3004 RMK A01 T03450126  RH  027%=      5-min Rain = 0
KREE 032219Z 13013KT 34/13 A3004 RMK A01 T03440127  RH  027%=      5-min Rain = 0
KREE 032220Z 14014KT 34/13 A3004 RMK A01 T03440127  RH  027%=      5-min Rain = 0
KREE 032221Z 14014G19KT 34/13 A3004 RMK A01 T03440126  RH  027%=      5-min Rain = 0
KREE 032222Z 15011KT 34/13 A3004 RMK A01 T03430126  RH  027%=      5-min Rain = 0
KREE 032223Z 16012KT 34/13 A3004 RMK A01 T03420126  RH  027%=      5-min Rain = 0
KREE 032224Z 17007KT 34/13 A3004 RMK A01 T03400125  RH  027%=      5-min Rain = 0
KREE 032225Z 15011KT 34/13 A3004 RMK A01 T03390125  RH  027%=      5-min Rain = 0
KREE 032226Z 14009G14KT 34/13 A3004 RMK A01 T03400125  RH  027%=      5-min Rain = 0
KREE 032227Z 14013KT 34/13 A3004 RMK A01 T03420125  RH  027%=      5-min Rain = 0
KREE 032228Z 14012G17KT 34/12 A3004 RMK A01 T03420124  RH  027%=      5-min Rain = 0
KREE 032229Z 14011G16KT 34/12 A3004 RMK A01 T03420123  RH  027%=      5-min Rain = 0
KREE 032230Z 14010KT 34/12 A3004 RMK A01 T03410123  RH  027%=      5-min Rain = 0
KREE 032231Z 13014KT 34/12 A3004 RMK A01 T03420123  RH  026%=      5-min Rain = 0
KREE 032232Z 13014KT 34/12 A3004 RMK A01 T03410122  RH  027%=      5-min Rain = 0
KREE 032233Z 14010KT 34/12 A3004 RMK A01 T03410122  RH  027%=      5-min Rain = 0
KREE 032234Z 13011KT 34/12 A3004 RMK A01 T03410122  RH  027%=      5-min Rain = 0
KREE 032235Z 13010KT 34/12 A3004 RMK A01 T03420123  RH  027%=      5-min Rain = 0
KREE 032236Z 13009KT 34/12 A3004 RMK A01 T03410123  RH  027%=      5-min Rain = 0
KREE 032237Z 13007KT 34/12 A3004 RMK A01 T03410123  RH  027%=      5-min Rain = 0
KREE 032238Z 12009KT 34/13 A3004 RMK A01 T03400125  RH  027%=      5-min Rain = 0
KREE 032239Z 13007KT 34/12 A3003 RMK A01 T03410124  RH  027%=      5-min Rain = 0
KREE 032240Z 14007KT 34/12 A3003 RMK A01 T03400124  RH  027%=      5-min Rain = 0
KREE 032241Z 13008KT 34/12 A3003 RMK A01 T03400124  RH  027%=      5-min Rain = 0
KREE 032242Z 13008KT 34/13 A3003 RMK A01 T03400125  RH  027%=      5-min Rain = 0
KREE 032243Z 13007KT 34/12 A3003 RMK A01 T03400124  RH  027%=      5-min Rain = 0
KREE 032244Z 13007KT 34/13 A3003 RMK A01 T03400125  RH  027%=      5-min Rain = 0
KREE 032245Z 11007KT 34/12 A3003 RMK A01 T03410124  RH  027%=      5-min Rain = 0
KREE 032246Z 12008KT 34/12 A3003 RMK A01 T03410124  RH  027%=      5-min Rain = 0
KREE 032247Z 10011KT 34/12 A3003 RMK A01 T03410124  RH  027%=      5-min Rain = 0
KREE 032248Z 11009KT 34/12 A3003 RMK A01 T03420123  RH  027%=      5-min Rain = 0
KREE 032249Z 13009KT 34/12 A3003 RMK A01 T03410123  RH  027%=      5-min Rain = 0
KREE 032250Z 13011KT 34/12 A3003 RMK A01 T03400124  RH  027%=      5-min Rain = 0
KREE 032251Z 13011KT 34/12 A3003 RMK A01 T03410123  RH  027%=      5-min Rain = 0
KREE 032252Z 12013KT 34/12 A3003 RMK A01 T03410124  RH  027%=      5-min Rain = 0
KREE 032253Z 15013KT 34/12 A3003 RMK A01 T03410124  RH  027%=      5-min Rain = 0
KREE 032254Z 14011KT 34/13 A3003 RMK A01 T03410125  RH  027%=      5-min Rain = 0
KREE 032255Z 15013KT 34/12 A3003 RMK A01 T03400124  RH  027%=      5-min Rain = 0
KREE 032256Z 15010KT 34/12 A3003 RMK A01 T03390122  RH  027%=      5-min Rain = 0
KREE 032257Z 14007KT 34/12 A3003 RMK A01 T03390122  RH  027%=      5-min Rain = 0
KREE 032258Z 13007KT 34/12 A3003 RMK A01 T03390124  RH  027%=      5-min Rain = 0
KREE 032259Z 11010KT 34/12 A3003 RMK A01 T03390124  RH  027%=      5-min Rain = 0
KREE 032300Z 11010KT 34/12 A3003 RMK A01 T03400123  RH  027%=      5-min Rain = 0
KREE 032301Z 12009KT 34/12 A3003 RMK A01 T03400123  RH  027%=      5-min Rain = 0
KREE 032302Z 11009KT 34/12 A3003 RMK A01 T03400123  RH  027%=      5-min Rain = 0
KREE 032303Z 11008KT 34/12 A3003 RMK A01 T03400123  RH  027%=      5-min Rain = 0
KREE 032304Z 11008KT 34/12 A3003 RMK A01 T03390123  RH  027%=      5-min Rain = 0
KREE 032305Z 12008KT 34/12 A3003 RMK A01 T03390123  RH  027%=      5-min Rain = 0
KREE 032306Z 14010KT 34/12 A3003 RMK A01 T03390122  RH  027%=      5-min Rain = 0
KREE 032307Z 13011KT 34/12 A3003 RMK A01 T03400121  RH  026%=      5-min Rain = 0
KREE 032308Z 13008G13KT 34/12 A3003 RMK A01 T03400120  RH  026%=      5-min Rain = 0
KREE 032309Z 13007KT 34/12 A3003 RMK A01 T03390120  RH  027%=      5-min Rain = 0
KREE 032310Z 13005KT 34/12 A3003 RMK A01 T03370120  RH  027%=      5-min Rain = 0
KREE 032311Z 15009KT 34/12 A3002 RMK A01 T03380122  RH  027%=      5-min Rain = 0
KREE 032312Z 16009KT 34/12 A3002 RMK A01 T03400121  RH  026%=      5-min Rain = 0
KREE 032313Z 16006KT 34/12 A3002 RMK A01 T03400121  RH  026%=      5-min Rain = 0
KREE 032314Z 15006KT 34/12 A3002 RMK A01 T03390121  RH  027%=      5-min Rain = 0
KREE 032315Z 13009KT 34/12 A3002 RMK A01 T03390121  RH  027%=      5-min Rain = 0
KREE 032316Z 13009KT 34/12 A3002 RMK A01 T03400120  RH  026%=      5-min Rain = 0
KREE 032317Z 12009KT 34/12 A3002 RMK A01 T03410121  RH  026%=      5-min Rain = 0
KREE 032318Z 12008KT 34/12 A3002 RMK A01 T03420121  RH  026%=      5-min Rain = 0
KREE 032319Z 11010KT 34/12 A3002 RMK A01 T03440122  RH  026%=      5-min Rain = 0
KREE 032320Z 11008KT 34/12 A3002 RMK A01 T03440120  RH  026%=      5-min Rain = 0
KREE 032321Z 10010KT 34/12 A3002 RMK A01 T03420119  RH  026%=      5-min Rain = 0
KREE 032322Z 10009KT 34/12 A3002 RMK A01 T03420120  RH  026%=      5-min Rain = 0
KREE 032323Z 12008KT 34/12 A3002 RMK A01 T03430120  RH  026%=      5-min Rain = 0
KREE 032324Z 12008KT 34/12 A3002 RMK A01 T03430120  RH  026%=      5-min Rain = 0
KREE 032325Z 14007KT 34/12 A3002 RMK A01 T03430121  RH  026%=      5-min Rain = 0
KREE 032326Z 14012KT 35/12 A3002 RMK A01 T03450121  RH  026%=      5-min Rain = 0
KREE 032327Z 14012KT 35/12 A3002 RMK A01 T03450118  RH  025%=      5-min Rain = 0
KREE 032328Z 13010KT 35/12 A3002 RMK A01 T03450118  RH  025%=      5-min Rain = 0
KREE 032329Z 13012KT 35/12 A3002 RMK A01 T03450116  RH  025%=      5-min Rain = 0
KREE 032330Z 13013KT 35/12 A3002 RMK A01 T03460117  RH  025%=      5-min Rain = 0
KREE 032331Z 12013KT 35/12 A3002 RMK A01 T03470117  RH  025%=      5-min Rain = 0
KREE 032332Z 11010KT 35/12 A3002 RMK A01 T03450117  RH  025%=      5-min Rain = 0
KREE 032333Z 11008KT 34/12 A3002 RMK A01 T03440117  RH  025%=      5-min Rain = 0
KREE 032334Z 13010G15KT 34/12 A3002 RMK A01 T03440117  RH  025%=      5-min Rain = 0
KREE 032335Z 13013KT 35/12 A3002 RMK A01 T03460117  RH  025%=      5-min Rain = 0
KREE 032336Z 13010KT 35/12 A3002 RMK A01 T03460117  RH  025%=      5-min Rain = 0
KREE 032337Z 12009KT 35/12 A3002 RMK A01 T03460117  RH  025%=      5-min Rain = 0
KREE 032338Z 13009KT 35/12 A3001 RMK A01 T03470117  RH  025%=      5-min Rain = 0
KREE 032339Z 12008KT 35/12 A3001 RMK A01 T03460115  RH  025%=      5-min Rain = 0
KREE 032340Z 12012KT 35/12 A3001 RMK A01 T03450116  RH  025%=      5-min Rain = 0
KREE 032341Z 12013KT 35/11 A3001 RMK A01 T03460113  RH  024%=      5-min Rain = 0
KREE 032342Z 12011KT 34/11 A3001 RMK A01 T03440114  RH  025%=      5-min Rain = 0
KREE 032343Z 14012KT 35/11 A3001 RMK A01 T03450114  RH  025%=      5-min Rain = 0
KREE 032344Z 14013KT 35/11 A3001 RMK A01 T03480112  RH  024%=      5-min Rain = 0
KREE 032345Z 13013KT 35/11 A3001 RMK A01 T03480112  RH  024%=      5-min Rain = 0
KREE 032346Z 13011KT 35/11 A3001 RMK A01 T03470111  RH  024%=      5-min Rain = 0
KREE 032347Z 14009KT 34/11 A3001 RMK A01 T03440111  RH  024%=      5-min Rain = 0
KREE 032348Z 13010KT 34/11 A3001 RMK A01 T03440111  RH  024%=      5-min Rain = 0
KREE 032349Z 12008KT 35/11 A3001 RMK A01 T03450112  RH  024%=      5-min Rain = 0
KREE 032350Z 14010KT 35/11 A3001 RMK A01 T03470112  RH  024%=      5-min Rain = 0
KREE 032351Z 14013KT 35/11 A3001 RMK A01 T03480112  RH  024%=      5-min Rain = 0
KREE 032352Z 14013KT 35/11 A3001 RMK A01 T03480110  RH  024%=      5-min Rain = 0
KREE 032353Z 13012KT 35/11 A3001 RMK A01 T03460110  RH  024%=      5-min Rain = 0
KREE 032354Z 14013KT 35/11 A3001 RMK A01 T03450110  RH  024%=      5-min Rain = 0
KREE 032355Z 14013KT 35/11 A3001 RMK A01 T03450110  RH  024%=      5-min Rain = 0
KREE 032356Z 14011KT 34/11 A3001 RMK A01 T03440110  RH  024%=      5-min Rain = 0
KREE 032357Z 13011KT 34/11 A3001 RMK A01 T03440110  RH  024%=      5-min Rain = 0
KREE 032358Z 12013KT 35/11 A3002 RMK A01 T03460110  RH  024%=      5-min Rain = 0
KREE 032359Z 12010KT 35/11 A3002 RMK A01 T03470110  RH  024%=      5-min Rain = 0
KREE 040000Z 12009KT 35/11 A3002 RMK A01 T03460109  RH  024%=      5-min Rain = 0
KREE 040001Z 11012KT 35/11 A3002 RMK A01 T03450109  RH  024%=      5-min Rain = 0
KREE 040002Z 13012KT 35/11 A3002 RMK A01 T03460111  RH  024%=      5-min Rain = 0
KREE 040003Z 14012KT 35/11 A3002 RMK A01 T03460110  RH  024%=      5-min Rain = 0
KREE 040004Z 13010KT 35/11 A3002 RMK A01 T03450110  RH  024%=      5-min Rain = 0
KREE 040005Z 12009KT 34/11 A3002 RMK A01 T03430111  RH  024%=      5-min Rain = 0
KREE 040006Z 13011KT 34/11 A3002 RMK A01 T03430111  RH  024%=      5-min Rain = 0
KREE 040007Z 13011KT 34/11 A3002 RMK A01 T03430111  RH  024%=      5-min Rain = 0
KREE 040008Z 13011KT 34/11 A3002 RMK A01 T03430110  RH  024%=      5-min Rain = 0
KREE 040009Z 13010KT 34/11 A3002 RMK A01 T03430109  RH  024%=      5-min Rain = 0
KREE 040010Z 14009KT 34/11 A3002 RMK A01 T03430110  RH  024%=      5-min Rain = 0
KREE 040011Z 14011KT 34/11 A3002 RMK A01 T03430111  RH  024%=      5-min Rain = 0
KREE 040012Z 14010KT 34/11 A3002 RMK A01 T03440111  RH  024%=      5-min Rain = 0
KREE 040013Z 13010KT 34/11 A3002 RMK A01 T03430110  RH  024%=      5-min Rain = 0
KREE 040014Z 12013KT 34/11 A3002 RMK A01 T03430108  RH  024%=      5-min Rain = 0
KREE 040015Z 12012KT 34/11 A3002 RMK A01 T03430107  RH  024%=      5-min Rain = 0
KREE 040016Z 11013KT 34/11 A3002 RMK A01 T03420107  RH  024%=      5-min Rain = 0
KREE 040017Z 10012KT 34/11 A3002 RMK A01 T03420107  RH  024%=      5-min Rain = 0
KREE 040018Z 11012KT 34/11 A3002 RMK A01 T03430108  RH  024%=      5-min Rain = 0
KREE 040019Z 12012KT 34/11 A3002 RMK A01 T03440107  RH  024%=      5-min Rain = 0
KREE 040020Z 11012KT 34/11 A3003 RMK A01 T03440107  RH  024%=      5-min Rain = 0
KREE 040021Z 11010KT 34/11 A3003 RMK A01 T03430108  RH  024%=      5-min Rain = 0
KREE 040022Z 11009KT 34/11 A3003 RMK A01 T03420108  RH  024%=      5-min Rain = 0
KREE 040023Z 10008KT 34/11 A3003 RMK A01 T03410109  RH  024%=      5-min Rain = 0
KREE 040024Z 10008KT 34/11 A3003 RMK A01 T03400109  RH  024%=      5-min Rain = 0
KREE 040025Z 10005KT 34/11 A3002 RMK A01 T03400108  RH  024%=      5-min Rain = 0
KREE 040026Z 11010KT 34/11 A3002 RMK A01 T03400108  RH  024%=      5-min Rain = 0
KREE 040027Z 11011KT 34/11 A3002 RMK A01 T03400108  RH  024%=      5-min Rain = 0
KREE 040028Z 11009KT 34/11 A3003 RMK A01 T03400107  RH  024%=      5-min Rain = 0
KREE 040029Z 11009KT 34/11 A3003 RMK A01 T03400108  RH  024%=      5-min Rain = 0
KREE 040030Z 11007KT 34/11 A3003 RMK A01 T03400107  RH  024%=      5-min Rain = 0
KREE 040031Z 12008KT 34/11 A3003 RMK A01 T03400106  RH  024%=      5-min Rain = 0
KREE 040032Z 13008KT 34/11 A3003 RMK A01 T03400106  RH  024%=      5-min Rain = 0
KREE 040033Z 14008KT 34/11 A3002 RMK A01 T03400107  RH  024%=      5-min Rain = 0
KREE 040034Z 12011KT 34/11 A3003 RMK A01 T03410107  RH  024%=      5-min Rain = 0
KREE 040035Z 11011KT 34/11 A3003 RMK A01 T03420106  RH  024%=      5-min Rain = 0
KREE 040036Z 11008KT 34/11 A3003 RMK A01 T03400105  RH  024%=      5-min Rain = 0
KREE 040037Z 12009KT 34/11 A3003 RMK A01 T03380105  RH  024%=      5-min Rain = 0
KREE 040038Z 13008KT 34/11 A3003 RMK A01 T03380106  RH  024%=      5-min Rain = 0
KREE 040039Z 13011KT 34/11 A3003 RMK A01 T03390107  RH  024%=      5-min Rain = 0
KREE 040040Z 14009KT 34/11 A3002 RMK A01 T03400106  RH  024%=      5-min Rain = 0
KREE 040041Z 13011KT 34/11 A3002 RMK A01 T03400107  RH  024%=      5-min Rain = 0
KREE 040042Z 13011KT 34/11 A3002 RMK A01 T03400106  RH  024%=      5-min Rain = 0
KREE 040043Z 14009KT 34/11 A3002 RMK A01 T03400106  RH  024%=      5-min Rain = 0
KREE 040044Z 13011KT 34/11 A3002 RMK A01 T03390106  RH  024%=      5-min Rain = 0
KREE 040045Z 14009KT 34/11 A3002 RMK A01 T03380107  RH  024%=      5-min Rain = 0
KREE 040046Z 14011KT 34/11 A3002 RMK A01 T03380108  RH  025%=      5-min Rain = 0
KREE 040047Z 14010KT 34/11 A3002 RMK A01 T03380109  RH  025%=      5-min Rain = 0
KREE 040048Z 14009KT 34/11 A3002 RMK A01 T03390110  RH  025%=      5-min Rain = 0
KREE 040049Z 13011KT 34/11 A3002 RMK A01 T03390111  RH  025%=      5-min Rain = 0
KREE 040050Z 12010KT 34/11 A3002 RMK A01 T03390111  RH  025%=      5-min Rain = 0
KREE 040051Z 13012KT 34/11 A3003 RMK A01 T03390113  RH  025%=      5-min Rain = 0
KREE 040052Z 12011KT 34/11 A3003 RMK A01 T03380113  RH  025%=      5-min Rain = 0
KREE 040053Z 12012KT 34/11 A3003 RMK A01 T03370113  RH  026%=      5-min Rain = 0
KREE 040054Z 12011KT 34/11 A3003 RMK A01 T03360113  RH  026%=      5-min Rain = 0
KREE 040055Z 12011KT 34/11 A3003 RMK A01 T03350113  RH  026%=      5-min Rain = 0
KREE 040056Z 14010KT 34/11 A3003 RMK A01 T03350113  RH  026%=      5-min Rain = 0
KREE 040057Z 14012KT 33/11 A3003 RMK A01 T03340113  RH  026%=      5-min Rain = 0
KREE 040058Z 14012KT 33/11 A3003 RMK A01 T03340113  RH  026%=      5-min Rain = 0
KREE 040059Z 13012KT 33/11 A3003 RMK A01 T03340113  RH  026%=      5-min Rain = 0
KREE 040100Z 12011KT 33/11 A3003 RMK A01 T03340112  RH  026%=      5-min Rain = 0
KREE 040101Z 12010KT 33/11 A3003 RMK A01 T03340112  RH  026%=      5-min Rain = 0
KREE 040102Z 12010KT 33/11 A3003 RMK A01 T03340112  RH  026%=      5-min Rain = 0
KREE 040103Z 13010KT 33/11 A3003 RMK A01 T03340112  RH  026%=      5-min Rain = 0
KREE 040104Z 12009KT 33/11 A3003 RMK A01 T03340112  RH  026%=      5-min Rain = 0
KREE 040105Z 13010KT 33/11 A3003 RMK A01 T03340112  RH  026%=      5-min Rain = 0
KREE 040106Z 13010KT 33/11 A3003 RMK A01 T03340111  RH  026%=      5-min Rain = 0
KREE 040107Z 14010KT 33/11 A3003 RMK A01 T03340111  RH  026%=      5-min Rain = 0
KREE 040108Z 13009KT 33/11 A3003 RMK A01 T03340111  RH  026%=      5-min Rain = 0
KREE 040109Z 13009KT 33/11 A3003 RMK A01 T03340110  RH  025%=      5-min Rain = 0
KREE 040110Z 13008KT 33/11 A3003 RMK A01 T03340110  RH  025%=      5-min Rain = 0
KREE 040111Z 13009KT 33/11 A3003 RMK A01 T03340110  RH  025%=      5-min Rain = 0
KREE 040112Z 13008KT 33/11 A3003 RMK A01 T03340110  RH  026%=      5-min Rain = 0
KREE 040113Z 13010KT 33/11 A3003 RMK A01 T03330111  RH  026%=      5-min Rain = 0
KREE 040114Z 12010KT 33/11 A3003 RMK A01 T03320111  RH  026%=      5-min Rain = 0
KREE 040115Z 13009KT 33/11 A3003 RMK A01 T03310112  RH  026%=      5-min Rain = 0
KREE 040116Z 13010KT 33/11 A3003 RMK A01 T03310112  RH  026%=      5-min Rain = 0
KREE 040117Z 13010KT 33/11 A3003 RMK A01 T03310112  RH  026%=      5-min Rain = 0
KREE 040118Z 13009KT 33/11 A3003 RMK A01 T03300112  RH  026%=      5-min Rain = 0
KREE 040119Z 14009KT 33/11 A3003 RMK A01 T03290112  RH  026%=      5-min Rain = 0
KREE 040120Z 13010KT 33/11 A3003 RMK A01 T03290111  RH  026%=      5-min Rain = 0
KREE 040121Z 13009KT 33/11 A3003 RMK A01 T03290112  RH  026%=      5-min Rain = 0
KREE 040122Z 12009KT 33/11 A3003 RMK A01 T03280112  RH  027%=      5-min Rain = 0
KREE 040123Z 13009KT 33/11 A3003 RMK A01 T03280111  RH  027%=      5-min Rain = 0
KREE 040124Z 13008KT 33/11 A3003 RMK A01 T03280111  RH  027%=      5-min Rain = 0
KREE 040125Z 13009KT 33/11 A3003 RMK A01 T03270111  RH  027%=      5-min Rain = 0
KREE 040126Z 13009KT 33/11 A3003 RMK A01 T03270110  RH  027%=      5-min Rain = 0
KREE 040127Z 13010KT 33/11 A3003 RMK A01 T03270110  RH  027%=      5-min Rain = 0
KREE 040128Z 14010KT 33/11 A3003 RMK A01 T03270110  RH  027%=      5-min Rain = 0
KREE 040129Z 14009KT 33/11 A3003 RMK A01 T03270110  RH  027%=      5-min Rain = 0
KREE 040130Z 14010KT 33/11 A3003 RMK A01 T03260110  RH  027%=      5-min Rain = 0
KREE 040131Z 14009KT 33/11 A3003 RMK A01 T03260110  RH  027%=      5-min Rain = 0
KREE 040132Z 15008KT 33/11 A3003 RMK A01 T03260111  RH  027%=      5-min Rain = 0
KREE 040133Z 14007KT 33/11 A3003 RMK A01 T03250111  RH  027%=      5-min Rain = 0
KREE 040134Z 13008KT 33/11 A3003 RMK A01 T03250111  RH  027%=      5-min Rain = 0
KREE 040135Z 13008KT 32/11 A3003 RMK A01 T03240111  RH  027%=      5-min Rain = 0
KREE 040136Z 13009KT 32/11 A3003 RMK A01 T03240111  RH  027%=      5-min Rain = 0
KREE 040137Z 13009KT 32/11 A3003 RMK A01 T03240110  RH  027%=      5-min Rain = 0
KREE 040138Z 13009KT 33/11 A3003 RMK A01 T03250111  RH  027%=      5-min Rain = 0
KREE 040139Z 13008KT 33/11 A3003 RMK A01 T03250111  RH  027%=      5-min Rain = 0
KREE 040140Z 13009KT 33/11 A3003 RMK A01 T03250111  RH  027%=      5-min Rain = 0
KREE 040141Z 13009KT 32/11 A3003 RMK A01 T03240110  RH  027%=      5-min Rain = 0
KREE 040142Z 12010KT 32/11 A3003 RMK A01 T03240110  RH  027%=      5-min Rain = 0
KREE 040143Z 13009KT 32/11 A3003 RMK A01 T03240109  RH  027%=      5-min Rain = 0
KREE 040144Z 13008KT 32/11 A3003 RMK A01 T03240109  RH  027%=      5-min Rain = 0
KREE 040145Z 13008KT 32/11 A3003 RMK A01 T03230108  RH  027%=      5-min Rain = 0
KREE 040146Z 13008KT 32/11 A3003 RMK A01 T03230108  RH  027%=      5-min Rain = 0
KREE 040147Z 13008KT 32/11 A3003 RMK A01 T03220108  RH  027%=      5-min Rain = 0
KREE 040148Z 13011KT 32/11 A3003 RMK A01 T03210107  RH  027%=      5-min Rain = 0
KREE 040149Z 13011KT 32/11 A3003 RMK A01 T03210107  RH  027%=      5-min Rain = 0
KREE 040150Z 13010KT 32/11 A3003 RMK A01 T03220107  RH  027%=      5-min Rain = 0
KREE 040151Z 13010KT 32/11 A3003 RMK A01 T03220107  RH  027%=      5-min Rain = 0
KREE 040152Z 13010KT 32/11 A3003 RMK A01 T03220107  RH  027%=      5-min Rain = 0
KREE 040153Z 12011KT 32/11 A3003 RMK A01 T03210107  RH  027%=      5-min Rain = 0
KREE 040154Z 13010KT 32/11 A3003 RMK A01 T03210106  RH  027%=      5-min Rain = 0
KREE 040155Z 12010KT 32/11 A3003 RMK A01 T03210106  RH  027%=      5-min Rain = 0
KREE 040156Z 12010KT 32/11 A3004 RMK A01 T03210106  RH  027%=      5-min Rain = 0
KREE 040157Z 13008KT 32/11 A3004 RMK A01 T03210106  RH  027%=      5-min Rain = 0
KREE 040158Z 13010KT 32/11 A3004 RMK A01 T03200106  RH  027%=      5-min Rain = 0
KREE 040159Z 13009KT 32/11 A3004 RMK A01 T03200106  RH  027%=      5-min Rain = 0
KREE 040200Z 12009KT 32/11 A3004 RMK A01 T03200106  RH  027%=      5-min Rain = 0
KREE 040201Z 12009KT 32/11 A3004 RMK A01 T03190106  RH  027%=      5-min Rain = 0
KREE 040202Z 13009KT 32/11 A3004 RMK A01 T03190106  RH  027%=      5-min Rain = 0
KREE 040203Z 13010KT 32/11 A3004 RMK A01 T03190106  RH  027%=      5-min Rain = 0
KREE 040204Z 13008KT 32/11 A3004 RMK A01 T03190106  RH  027%=      5-min Rain = 0
KREE 040205Z 13009KT 32/11 A3004 RMK A01 T03180106  RH  027%=      5-min Rain = 0
KREE 040206Z 13009KT 32/11 A3004 RMK A01 T03180107  RH  027%=      5-min Rain = 0
KREE 040207Z 13009KT 32/11 A3004 RMK A01 T03170106  RH  027%=      5-min Rain = 0
KREE 040208Z 13009KT 32/11 A3004 RMK A01 T03170106  RH  027%=      5-min Rain = 0
KREE 040209Z 13010KT 32/11 A3004 RMK A01 T03170106  RH  027%=      5-min Rain = 0
KREE 040210Z 13009KT 32/11 A3004 RMK A01 T03170105  RH  027%=      5-min Rain = 0
KREE 040211Z 13010KT 32/11 A3004 RMK A01 T03170105  RH  027%=      5-min Rain = 0
KREE 040212Z 13008KT 32/11 A3004 RMK A01 T03170105  RH  027%=      5-min Rain = 0
KREE 040213Z 13009KT 32/11 A3004 RMK A01 T03160105  RH  027%=      5-min Rain = 0
KREE 040214Z 14008KT 32/11 A3004 RMK A01 T03150105  RH  027%=      5-min Rain = 0
KREE 040215Z 13008KT 32/10 A3004 RMK A01 T03150104  RH  027%=      5-min Rain = 0
KREE 040216Z 13008KT 31/10 A3004 RMK A01 T03140104  RH  027%=      5-min Rain = 0
KREE 040217Z 13008KT 31/10 A3004 RMK A01 T03140104  RH  027%=      5-min Rain = 0
KREE 040218Z 13008KT 31/10 A3004 RMK A01 T03140104  RH  028%=      5-min Rain = 0
KREE 040219Z 13008KT 31/10 A3004 RMK A01 T03130104  RH  028%=      5-min Rain = 0
KREE 040220Z 13008KT 31/10 A3004 RMK A01 T03130104  RH  028%=      5-min Rain = 0
KREE 040221Z 13008KT 31/10 A3004 RMK A01 T03130104  RH  028%=      5-min Rain = 0
KREE 040222Z 13008KT 31/10 A3004 RMK A01 T03120104  RH  028%=      5-min Rain = 0
KREE 040223Z 13008KT 31/10 A3004 RMK A01 T03110104  RH  028%=      5-min Rain = 0
KREE 040224Z 13008KT 31/10 A3004 RMK A01 T03110104  RH  028%=      5-min Rain = 0
KREE 040225Z 13008KT 31/11 A3004 RMK A01 T03110105  RH  028%=      5-min Rain = 0
KREE 040226Z 13007KT 31/11 A3004 RMK A01 T03110105  RH  028%=      5-min Rain = 0
KREE 040227Z 13008KT 31/11 A3004 RMK A01 T03110105  RH  028%=      5-min Rain = 0
KREE 040228Z 12007KT 31/11 A3004 RMK A01 T03110105  RH  028%=      5-min Rain = 0
KREE 040229Z 13007KT 31/11 A3004 RMK A01 T03100105  RH  028%=      5-min Rain = 0
KREE 040230Z 12008KT 31/11 A3004 RMK A01 T03100105  RH  028%=      5-min Rain = 0
KREE 040231Z 13008KT 31/11 A3005 RMK A01 T03100105  RH  028%=      5-min Rain = 0
KREE 040232Z 12009KT 31/11 A3005 RMK A01 T03100105  RH  028%=      5-min Rain = 0
KREE 040233Z 12009KT 31/11 A3005 RMK A01 T03100105  RH  028%=      5-min Rain = 0
KREE 040234Z 12008KT 31/11 A3005 RMK A01 T03110105  RH  028%=      5-min Rain = 0
KREE 040235Z 13008KT 31/11 A3005 RMK A01 T03110105  RH  028%=      5-min Rain = 0
KREE 040236Z 13009KT 31/11 A3005 RMK A01 T03110105  RH  028%=      5-min Rain = 0
KREE 040237Z 12008KT 31/11 A3005 RMK A01 T03110105  RH  028%=      5-min Rain = 0
KREE 040238Z 12007KT 31/11 A3005 RMK A01 T03110105  RH  028%=      5-min Rain = 0
KREE 040239Z 12007KT 31/11 A3005 RMK A01 T03100105  RH  028%=      5-min Rain = 0
KREE 040240Z 12007KT 31/11 A3005 RMK A01 T03100105  RH  028%=      5-min Rain = 0
KREE 040241Z 12007KT 31/11 A3005 RMK A01 T03090105  RH  028%=      5-min Rain = 0
KREE 040242Z 12006KT 31/11 A3005 RMK A01 T03080105  RH  029%=      5-min Rain = 0
KREE 040243Z 12007KT 31/11 A3005 RMK A01 T03080105  RH  029%=      5-min Rain = 0
KREE 040244Z 12007KT 31/11 A3005 RMK A01 T03070105  RH  029%=      5-min Rain = 0
KREE 040245Z 12007KT 31/11 A3005 RMK A01 T03070105  RH  029%=      5-min Rain = 0
KREE 040246Z 12007KT 31/11 A3005 RMK A01 T03060105  RH  029%=      5-min Rain = 0
KREE 040247Z 12007KT 31/11 A3005 RMK A01 T03060105  RH  029%=      5-min Rain = 0
KREE 040248Z 12007KT 31/11 A3005 RMK A01 T03060105  RH  029%=      5-min Rain = 0
KREE 040249Z 12007KT 31/11 A3005 RMK A01 T03050105  RH  029%=      5-min Rain = 0
KREE 040250Z 12007KT 30/11 A3005 RMK A01 T03040105  RH  029%=      5-min Rain = 0
KREE 040251Z 12006KT 30/11 A3005 RMK A01 T03040105  RH  029%=      5-min Rain = 0
KREE 040252Z 12006KT 30/11 A3005 RMK A01 T03030105  RH  029%=      5-min Rain = 0
KREE 040253Z 12006KT 30/11 A3005 RMK A01 T03020106  RH  030%=      5-min Rain = 0
KREE 040254Z 12006KT 30/11 A3005 RMK A01 T03010106  RH  030%=      5-min Rain = 0
KREE 040255Z 12006KT 30/11 A3005 RMK A01 T03000105  RH  030%=      5-min Rain = 0
KREE 040256Z 13007KT 30/11 A3005 RMK A01 T03000105  RH  030%=      5-min Rain = 0
KREE 040257Z 13007KT 30/11 A3005 RMK A01 T03000105  RH  030%=      5-min Rain = 0
KREE 040258Z 13008KT 30/11 A3006 RMK A01 T03000105  RH  030%=      5-min Rain = 0
KREE 040259Z 13007KT 30/11 A3006 RMK A01 T03000105  RH  030%=      5-min Rain = 0
KREE 040300Z 12008KT 30/11 A3006 RMK A01 T03000105  RH  030%=      5-min Rain = 0
KREE 040301Z 12008KT 30/11 A3006 RMK A01 T03010105  RH  030%=      5-min Rain = 0
KREE 040302Z 12008KT 30/11 A3006 RMK A01 T03010106  RH  030%=      5-min Rain = 0
KREE 040303Z 12008KT 30/11 A3006 RMK A01 T03020106  RH  030%=      5-min Rain = 0
KREE 040304Z 12008KT 30/11 A3006 RMK A01 T03020106  RH  030%=      5-min Rain = 0
KREE 040305Z 12008KT 30/11 A3006 RMK A01 T03030106  RH  030%=      5-min Rain = 0
KREE 040306Z 12007KT 30/11 A3006 RMK A01 T03020106  RH  030%=      5-min Rain = 0
KREE 040307Z 12008KT 30/11 A3006 RMK A01 T03030106  RH  030%=      5-min Rain = 0
KREE 040308Z 12008KT 30/11 A3006 RMK A01 T03030106  RH  029%=      5-min Rain = 0
KREE 040309Z 12008KT 30/11 A3006 RMK A01 T03040106  RH  029%=      5-min Rain = 0
KREE 040310Z 12008KT 30/11 A3006 RMK A01 T03040106  RH  029%=      5-min Rain = 0
KREE 040311Z 12008KT 30/11 A3006 RMK A01 T03040106  RH  029%=      5-min Rain = 0
KREE 040312Z 12008KT 30/11 A3006 RMK A01 T03030106  RH  029%=      5-min Rain = 0
KREE 040313Z 13009KT 30/11 A3006 RMK A01 T03030106  RH  029%=      5-min Rain = 0
KREE 040314Z 13009KT 30/11 A3006 RMK A01 T03030106  RH  029%=      5-min Rain = 0
KREE 040315Z 13009KT 30/11 A3006 RMK A01 T03030106  RH  029%=      5-min Rain = 0
KREE 040316Z 13009KT 30/11 A3006 RMK A01 T03040106  RH  029%=      5-min Rain = 0
KREE 040317Z 13008KT 30/11 A3006 RMK A01 T03040106  RH  029%=      5-min Rain = 0
KREE 040318Z 13008KT 30/11 A3006 RMK A01 T03040106  RH  029%=      5-min Rain = 0
KREE 040319Z 13008KT 30/11 A3006 RMK A01 T03040106  RH  030%=      5-min Rain = 0
KREE 040320Z 13009KT 30/11 A3006 RMK A01 T03030106  RH  030%=      5-min Rain = 0
KREE 040321Z 13008KT 30/11 A3006 RMK A01 T03030106  RH  030%=      5-min Rain = 0
KREE 040322Z 13009KT 30/11 A3007 RMK A01 T03030106  RH  030%=      5-min Rain = 0
KREE 040323Z 13009KT 30/11 A3007 RMK A01 T03030106  RH  030%=      5-min Rain = 0
KREE 040324Z 13009KT 30/11 A3007 RMK A01 T03020106  RH  030%=      5-min Rain = 0
KREE 040325Z 13009KT 30/11 A3007 RMK A01 T03020106  RH  030%=      5-min Rain = 0
KREE 040326Z 13009KT 30/11 A3007 RMK A01 T03020106  RH  030%=      5-min Rain = 0
KREE 040327Z 13009KT 30/11 A3007 RMK A01 T03020107  RH  030%=      5-min Rain = 0
KREE 040328Z 12009KT 30/11 A3007 RMK A01 T03020107  RH  030%=      5-min Rain = 0
KREE 040329Z 12009KT 30/11 A3007 RMK A01 T03020107  RH  030%=      5-min Rain = 0
KREE 040330Z 12009KT 30/11 A3007 RMK A01 T03010107  RH  030%=      5-min Rain = 0
KREE 040331Z 12008KT 30/11 A3007 RMK A01 T03010107  RH  030%=      5-min Rain = 0
KREE 040332Z 12008KT 30/11 A3007 RMK A01 T03010107  RH  030%=      5-min Rain = 0
KREE 040333Z 12008KT 30/11 A3007 RMK A01 T03000107  RH  030%=      5-min Rain = 0
KREE 040334Z 11007KT 30/11 A3007 RMK A01 T02990106  RH  030%=      5-min Rain = 0
KREE 040335Z 11007KT 30/11 A3007 RMK A01 T02980106  RH  030%=      5-min Rain = 0
KREE 040336Z 11008KT 30/11 A3007 RMK A01 T02960106  RH  031%=      5-min Rain = 0
KREE 040337Z 11008KT 29/11 A3007 RMK A01 T02940105  RH  031%=      5-min Rain = 0
KREE 040338Z 11009KT 29/11 A3007 RMK A01 T02920105  RH  031%=      5-min Rain = 0
KREE 040339Z 11009KT 29/11 A3007 RMK A01 T02920105  RH  031%=      5-min Rain = 0
KREE 040340Z 11009KT 29/11 A3007 RMK A01 T02920105  RH  031%=      5-min Rain = 0
KREE 040341Z 11009KT 29/11 A3007 RMK A01 T02930106  RH  031%=      5-min Rain = 0
KREE 040342Z 11009KT 29/11 A3007 RMK A01 T02940106  RH  031%=      5-min Rain = 0
KREE 040343Z 11009KT 30/11 A3007 RMK A01 T02950106  RH  031%=      5-min Rain = 0
KREE 040344Z 11009KT 30/11 A3008 RMK A01 T02950107  RH  031%=      5-min Rain = 0
KREE 040345Z 11009KT 30/11 A3008 RMK A01 T02960107  RH  031%=      5-min Rain = 0
KREE 040346Z 11009KT 30/11 A3008 RMK A01 T02960107  RH  031%=      5-min Rain = 0
KREE 040347Z 11010KT 30/11 A3008 RMK A01 T02960108  RH  031%=      5-min Rain = 0
KREE 040348Z 11009KT 30/11 A3008 RMK A01 T02960109  RH  031%=      5-min Rain = 0
KREE 040349Z 11009KT 30/11 A3008 RMK A01 T02970109  RH  031%=      5-min Rain = 0
KREE 040350Z 11009KT 30/11 A3008 RMK A01 T02970111  RH  032%=      5-min Rain = 0
KREE 040351Z 11009KT 30/11 A3008 RMK A01 T02970112  RH  032%=      5-min Rain = 0
KREE 040352Z 11009KT 30/11 A3008 RMK A01 T02970112  RH  032%=      5-min Rain = 0
KREE 040353Z 12009KT 30/11 A3008 RMK A01 T02970113  RH  032%=      5-min Rain = 0
KREE 040354Z 11009KT 30/11 A3008 RMK A01 T02970114  RH  032%=      5-min Rain = 0
KREE 040355Z 12009KT 30/12 A3008 RMK A01 T02970115  RH  033%=      5-min Rain = 0
KREE 040356Z 12010KT 30/12 A3008 RMK A01 T02970116  RH  033%=      5-min Rain = 0
KREE 040357Z 12008KT 30/12 A3008 RMK A01 T02970117  RH  033%=      5-min Rain = 0
KREE 040358Z 12009KT 30/12 A3008 RMK A01 T02970118  RH  033%=      5-min Rain = 0
KREE 040359Z 11010KT 30/12 A3008 RMK A01 T02980119  RH  033%=      5-min Rain = 0
KREE 040400Z 11009KT 30/12 A3008 RMK A01 T02970119  RH  033%=      5-min Rain = 0
KREE 040401Z 11010KT 30/12 A3008 RMK A01 T02980120  RH  034%=      5-min Rain = 0
KREE 040402Z 11010KT 30/12 A3008 RMK A01 T02980121  RH  034%=      5-min Rain = 0
KREE 040403Z 11010KT 30/12 A3008 RMK A01 T02970122  RH  034%=      5-min Rain = 0
KREE 040404Z 11010KT 30/12 A3008 RMK A01 T02970122  RH  034%=      5-min Rain = 0
KREE 040405Z 11010KT 30/12 A3008 RMK A01 T02970123  RH  034%=      5-min Rain = 0
KREE 040406Z 11011KT 30/12 A3008 RMK A01 T02980124  RH  034%=      5-min Rain = 0
KREE 040407Z 11011KT 30/13 A3008 RMK A01 T02980125  RH  034%=      5-min Rain = 0
KREE 040408Z 12010KT 30/13 A3008 RMK A01 T02980125  RH  034%=      5-min Rain = 0
KREE 040409Z 12010KT 30/13 A3008 RMK A01 T02980126  RH  035%=      5-min Rain = 0
KREE 040410Z 12010KT 30/13 A3008 RMK A01 T02980126  RH  035%=      5-min Rain = 0
KREE 040411Z 12010KT 30/13 A3008 RMK A01 T02980126  RH  035%=      5-min Rain = 0
KREE 040412Z 11010KT 30/13 A3009 RMK A01 T02980126  RH  035%=      5-min Rain = 0
KREE 040413Z 12011KT 30/13 A3009 RMK A01 T02980126  RH  035%=      5-min Rain = 0
KREE 040414Z 12010KT 30/13 A3009 RMK A01 T02980127  RH  035%=      5-min Rain = 0
KREE 040415Z 12011KT 30/13 A3009 RMK A01 T02980127  RH  035%=      5-min Rain = 0
KREE 040416Z 12009KT 30/13 A3009 RMK A01 T02980127  RH  035%=      5-min Rain = 0
KREE 040417Z 12009KT 30/13 A3009 RMK A01 T02980127  RH  035%=      5-min Rain = 0
KREE 040418Z 11010KT 30/13 A3009 RMK A01 T02980127  RH  035%=      5-min Rain = 0
KREE 040419Z 12009KT 30/13 A3009 RMK A01 T02980128  RH  035%=      5-min Rain = 0
KREE 040420Z 12009KT 30/13 A3009 RMK A01 T02970128  RH  035%=      5-min Rain = 0
KREE 040421Z 11011KT 30/13 A3009 RMK A01 T02970128  RH  035%=      5-min Rain = 0
KREE 040422Z 12010KT 30/13 A3009 RMK A01 T02970128  RH  035%=      5-min Rain = 0
KREE 040423Z 12010KT 30/13 A3009 RMK A01 T02970128  RH  035%=      5-min Rain = 0
KREE 040424Z 12011KT 30/13 A3009 RMK A01 T02970128  RH  036%=      5-min Rain = 0
KREE 040425Z 12011KT 30/13 A3009 RMK A01 T02970129  RH  036%=      5-min Rain = 0
KREE 040426Z 12010KT 30/13 A3009 RMK A01 T02970129  RH  036%=      5-min Rain = 0
KREE 040427Z 12010KT 30/13 A3009 RMK A01 T02970129  RH  036%=      5-min Rain = 0
KREE 040428Z 12009KT 30/13 A3009 RMK A01 T02970129  RH  036%=      5-min Rain = 0
KREE 040429Z 12011KT 30/13 A3008 RMK A01 T02960129  RH  036%=      5-min Rain = 0
KREE 040430Z 12011KT 30/13 A3008 RMK A01 T02960129  RH  036%=      5-min Rain = 0
KREE 040431Z 13010KT 30/13 A3008 RMK A01 T02960129  RH  036%=      5-min Rain = 0
KREE 040432Z 12009KT 30/13 A3008 RMK A01 T02960129  RH  036%=      5-min Rain = 0
KREE 040433Z 13010KT 30/13 A3008 RMK A01 T02950129  RH  036%=      5-min Rain = 0
KREE 040434Z 13010KT 30/13 A3008 RMK A01 T02950130  RH  036%=      5-min Rain = 0
KREE 040435Z 13009KT 30/13 A3009 RMK A01 T02950130  RH  036%=      5-min Rain = 0
KREE 040436Z 13009KT 29/13 A3009 RMK A01 T02940130  RH  036%=      5-min Rain = 0
KREE 040437Z 13010KT 29/13 A3009 RMK A01 T02940130  RH  036%=      5-min Rain = 0
KREE 040438Z 13010KT 29/13 A3009 RMK A01 T02940130  RH  036%=      5-min Rain = 0
KREE 040439Z 12009KT 29/13 A3009 RMK A01 T02940130  RH  036%=      5-min Rain = 0
KREE 040440Z 12010KT 29/13 A3009 RMK A01 T02930130  RH  037%=      5-min Rain = 0
KREE 040441Z 12010KT 29/13 A3009 RMK A01 T02930130  RH  037%=      5-min Rain = 0
KREE 040442Z 13009KT 29/13 A3009 RMK A01 T02920130  RH  037%=      5-min Rain = 0
KREE 040443Z 12009KT 29/13 A3009 RMK A01 T02920130  RH  037%=      5-min Rain = 0
KREE 040444Z 12008KT 29/13 A3009 RMK A01 T02920130  RH  037%=      5-min Rain = 0
KREE 040445Z 13010KT 29/13 A3009 RMK A01 T02910130  RH  037%=      5-min Rain = 0
KREE 040446Z 13009KT 29/13 A3009 RMK A01 T02910130  RH  037%=      5-min Rain = 0
KREE 040447Z 13009KT 29/13 A3009 RMK A01 T02910130  RH  037%=      5-min Rain = 0
KREE 040448Z 13010KT 29/13 A3009 RMK A01 T02910130  RH  037%=      5-min Rain = 0
KREE 040449Z 13010KT 29/13 A3009 RMK A01 T02910131  RH  037%=      5-min Rain = 0
KREE 040450Z 12010KT 29/13 A3009 RMK A01 T02910131  RH  037%=      5-min Rain = 0
KREE 040451Z 13009KT 29/13 A3009 RMK A01 T02910131  RH  037%=      5-min Rain = 0
KREE 040452Z 12009KT 29/13 A3009 RMK A01 T02900131  RH  038%=      5-min Rain = 0
KREE 040453Z 12009KT 29/13 A3009 RMK A01 T02900131  RH  038%=      5-min Rain = 0
KREE 040454Z 12010KT 29/13 A3009 RMK A01 T02890131  RH  038%=      5-min Rain = 0
KREE 040455Z 12010KT 29/13 A3009 RMK A01 T02890131  RH  038%=      5-min Rain = 0
KREE 040456Z 12010KT 29/13 A3009 RMK A01 T02890131  RH  038%=      5-min Rain = 0
KREE 040457Z 12009KT 29/13 A3009 RMK A01 T02890131  RH  038%=      5-min Rain = 0
KREE 040458Z 12010KT 29/13 A3009 RMK A01 T02890131  RH  038%=      5-min Rain = 0
KREE 040459Z 12011KT 29/13 A3009 RMK A01 T02890131  RH  038%=      5-min Rain = 0

Page generated in 0.0708 seconds.